events-overview

 

Overall Combined Results - Vulcan Run 10K 2016

** Results are for the private use of participants and are the Intellectual Property of Set Up Events. Unauthorized use of these results is prohibited.

Place Bib NAME Age Sex CITY/STATE TeamName GunTime GunPace TagTime TagPace
117KIRUBEL ERASSA23MATLANTA GA 00:29:3100:04:4600:29:3100:04:46
220ELKANAH KIBET33MFOUNTAIN CO 00:29:3400:04:4700:29:3400:04:47
319CALEB HOOVER24MGREENVILLE SC 00:29:4500:04:4800:29:4500:04:48
432PAUL SUGUT30MGRAND PRAIRIE TX 00:29:4900:04:4900:29:4900:04:49
5819RACHID EZZOUNIOU34MMORRISTOWN NJ 00:29:5200:04:4900:29:5200:04:49
6863HILLARY TOO37MMORRISTOWN NJ 00:30:0900:04:5200:30:0900:04:52
730TABOR STEVENS25MGREENVILLE SC 00:30:1200:04:5300:30:1200:04:53
818ADAM FREUDENTHAL27MSPARTANBURG SC 00:30:2300:04:5500:30:2300:04:54
9483ANDREW MONAGHAN23MSTARKVILLE MS 00:31:3500:05:0600:31:3400:05:06
10857PATRICK ROHR24MMOBILE AL 00:31:4000:05:0700:31:4000:05:07
1122RICHARD KIMANI28MBIRMINGHAM ALCADENCE COED00:32:0200:05:1000:32:0100:05:10
1227JEFF RHODES30MBIRMINGHAM ALRUNNINGLANE COED00:32:1700:05:1300:32:1600:05:13
1316MATHEW DUNN23MDECATUR AL 00:32:3000:05:1500:32:2900:05:15
14959JOHN ROHR20MSAN JOSE CA 00:32:3500:05:1600:32:3400:05:16
15994DAVID MOKONE25MBOWLING GREEN KY 00:33:4800:05:2700:33:4700:05:27
1626SAMUEL PALMER28MBIRMINGHAM ALCAHABA DISTANCE PROJECT00:34:0100:05:3000:34:0100:05:30
171JOAN AIYABEI37FLANSING MI 00:34:1600:05:3200:34:1500:05:32
18861PARKER STEED20MBRENTWOOD TN 00:34:1800:05:3200:34:1800:05:32
19476ETHAN MINES18MPANAMA CITY FL 00:34:3300:05:3500:34:3200:05:35
2012MICHAEL BROWN32MBIRMINGHAM ALRUNNINGLANE COED00:34:4400:05:3700:34:4200:05:36
2115GOLDEN COACHMAN32MBIRMINGHAM ALCAHABA DISTANCE PROJECT00:34:5300:05:3800:34:5300:05:38
221079GLADYS DAVID25FMURFREESBORO TN 00:35:0900:05:4100:35:0800:05:40
231093JOSH BAKER26MHOOVER AL 00:35:1100:05:4100:35:0900:05:41
24942JACK MILLER22MBIRMINGHAM AL 00:35:1500:05:4200:35:1400:05:41
2531ORINTHAL STRIGGLES40MCOLUMBAI SC 00:35:3000:05:4400:35:3000:05:44
26837JACOB RUSSELL LISTER18MBIRMINGHAM ALCADENCE COED00:35:4600:05:4700:35:4500:05:46
27804JEFFREY ZICKUS42MATLANTA GA 00:35:4700:05:4700:35:4600:05:46
287EMMA NEIGEL22FSTARKVILLE MS 00:35:5300:05:4800:35:5200:05:48
293VICTORIA VORONKO25FGREENVILLE SC 00:36:0000:05:4900:35:5900:05:49
301011MATTHEW HAMMERSMITH29MGREENVILLE SC 00:36:0000:05:4900:35:5900:05:49
PlaceBibNAMEAgeSexCITY/STATETeamNameGunTimeGunPaceTagTimeTagPace
3158JUSTIN ARSEMENT24MBIRMINGHAM ALCAHABA DISTANCE PROJECT00:36:0200:05:4900:36:0000:05:49
3234MATTHEW WHITIS48MCOLUMBUS GA 00:36:0400:05:4900:36:0200:05:49
33527GRIFFIN OAKS18MBIRMINGHAM AL 00:36:3400:05:5400:36:3000:05:54
34953DAVID OLSEN25MBIRMINGHAM AL 00:36:4800:05:5700:36:4700:05:56
3539AARON AINSWORTH34MBIRMINGHAM AL 00:36:4900:05:5700:36:4700:05:56
36200SEAN DRUMMOND18MBIRMINGHAM AL 00:36:5200:05:5700:36:3900:05:55
37553BLAKE PEARSON37MHOMEWOOD ALRESOLUTE RUNNING COED00:37:0900:06:0000:37:0700:06:00
38941JOANNA MCCOY22FMOBILE AL 00:37:3100:06:0400:37:3000:06:03
394RACHEL HARLEY26FBIRMINGHAM ALCADENCE COED00:37:3300:06:0400:37:3200:06:04
4011SHAWANNA WHITE36FCOLUMBIA SCRUNNINGLANE COED00:37:4000:06:0500:37:3800:06:05
416JUSTYNA MUDY-MADER32FHUNTSVILLE ALRUNNINGLANE COED00:37:4100:06:0500:37:4000:06:05
4260BRIAN ATKINS35MHOMEWOOD AL 00:37:4300:06:0500:37:4000:06:05
439LAUREN SCOTT25FBIRMINGHAM ALCAHABA DISTANCE PROJECT00:38:0600:06:0900:38:0500:06:09
44521MICHAEL NIEZGODA27MBIRMINGHAM ALCAHABA DISTANCE PROJECT00:38:1900:06:1100:38:1700:06:11
45140JEFF CLARK51MMCCALLA AL 00:38:2300:06:1200:38:2200:06:12
4610WHITLEY WALDROP23FJACKSONVILLE ALCADENCE COED00:38:4300:06:1500:38:4200:06:15
47731JIRI VLACH37MBIRMINGHAM AL 00:39:0000:06:1800:38:5700:06:17
48687ERIC SULLIVAN48MBIRMINGHAM AL 00:39:0600:06:1900:39:0400:06:18
49642DANNY SHAFFIELD43MVESTAVIA HILLS AL 00:39:2400:06:2200:39:2200:06:21
50423WILLIAM LOVE15MVESTAVIA HILLS AL 00:39:5600:06:2700:39:5300:06:26
51633JOHN SCHOR22MBIRMINGHAM ALCADENCE COED00:40:0500:06:2800:40:0300:06:28
528CHELSEY PALMER28FBIRMINGHAM ALCAHABA DISTANCE PROJECT00:40:1200:06:2900:40:1000:06:29
53769TREY WHITT45MBIRMINGHAM AL 00:40:1800:06:3000:40:0900:06:29
54987GRAHAM BIANCHI16MTRUSSVILLE AL 00:40:2700:06:3200:40:2100:06:31
55188DAVID DENARD48MTRUSSVILLE AL 00:40:4300:06:3500:40:3900:06:34
56634MIKE SCHOR53MBIRMINGHAM ALCADENCE MEN00:40:5600:06:3700:40:5200:06:36
57590ALAN REEVES26MBIRMINGHAM AL 00:41:0100:06:3700:40:5800:06:37
5898JOSH BOYD16MASHVILLE AL 00:41:0100:06:3700:40:5800:06:37
592JENNIFER DUNN26FBIRMINGHAM AL 00:41:0500:06:3800:41:0300:06:38
60204DANIEL DYE39MBIRMINGHAM AL 00:41:1300:06:3900:40:3900:06:34
61384DANNER KLINE38MBIRMINGHAM AL 00:41:2000:06:4000:41:1900:06:40
PlaceBibNAMEAgeSexCITY/STATETeamNameGunTimeGunPaceTagTimeTagPace
62849CHARLIE PARKS36MBIRMINGHAM AL 00:41:2200:06:4100:41:1700:06:40
63233MADELEINE FRANK25FBIRMINGHAM AL 00:41:2300:06:4100:41:1900:06:40
6486BRANDON BLACK37MBIRMINGHAM AL 00:41:2500:06:4100:41:2300:06:41
65391LOREN KULP44MALABASTER ALCADENCE MEN00:41:2700:06:4200:41:2400:06:41
66614BILLY ROSE35MBIRMINGHAM ALRUNNINGLANE COED00:41:3000:06:4200:41:2600:06:41
671029RUSSELL WILLIAMS47MBIRMINGHAM AL 00:41:3900:06:4400:41:3700:06:43
68165DAMON COX38MHOMEWOOD AL 00:41:4400:06:4400:41:4200:06:44
69166MARY CRAIG24FHOOVER AL 00:41:4400:06:4400:41:3900:06:44
70294FONTAINE HASKELL35FBIRMINGHAM ALRESOLUTE RUNNING WOMEN00:41:4500:06:4400:41:4300:06:44
711037KELLY FARRELL28FBIRMINGHAM AL 00:41:4900:06:4500:41:3800:06:43
72823LAUREN FLOYD34FBIRMINGHAM ALCADENCE COED00:41:5200:06:4600:41:4800:06:45
73706SHAUN TILLERY36MLEEDS AL 00:41:5600:06:4600:41:5200:06:46
74186JOSEPH DEASE40MVESTAVIA HILLS AL 00:41:5600:06:4600:41:5300:06:46
75311MELANIE HILDEBRANDT28FBIRMINGHAM AL 00:41:5800:06:4600:41:5400:06:46
76504KIRK MUELLER55MBIRMINGHAM ALCADENCE MEN00:42:0000:06:4700:41:5600:06:46
77803CHRIS ZENKER52MBIRMINGHAM AL 00:42:0900:06:4800:42:0500:06:48
7862EVAN BAGGETT36MBIRMINGHAM AL 00:42:2400:06:5100:42:1600:06:49
79451GREGORY MCATEE30MDURHAM NC 00:42:3000:06:5200:42:2400:06:51
8093RYAN BONNER32MBIRMINGHAM AL 00:42:3500:06:5300:42:3300:06:52
81860CLEWIS SMITH25MBIRMINGHAM AL 00:42:4700:06:5400:42:3200:06:52
821063WILLIAM SASSER39MHOMEWOOD AL 00:42:4700:06:5400:42:3900:06:53
83843WALTER MCCORD, JR.25MBIRMINGHAM AL 00:42:4900:06:5500:42:2100:06:50
84440CRAIG MATHEWS44MODENVILLE AL 00:42:5100:06:5500:42:4900:06:55
85178NATHANIEL DARVILLE39MBIRMINGHAM AL 00:42:5200:06:5500:42:4700:06:54
86979NATE WILLIAMS29MBIRMINGHAM AL 00:42:5700:06:5600:42:3800:06:53
87276MISTY GRIFFIN42FMOODY AL 00:42:5800:06:5600:42:5400:06:56
88297CHAD HATHORNE48MHOMEWOOD AL 00:43:0800:06:5800:43:0400:06:57
89498ALEX MORROW44MBIRMINGHAM ALRESOLUTE RUNNING COED00:43:1300:06:5900:42:5300:06:55
90897JOSH DYKES17MTRUSSVILLE AL 00:43:1600:06:5900:43:0600:06:58
91627NATHAN SATURDAY38MBIRMINGHAM AL 00:43:1800:06:5900:43:1600:06:59
92337LAUREN HOWELL24FBIRMINGHAM ALCAHABA DISTANCE PROJECT00:43:3200:07:0200:43:3000:07:01
PlaceBibNAMEAgeSexCITY/STATETeamNameGunTimeGunPaceTagTimeTagPace
93745JOSHUA WASHINGTON21MMERIDIANVILLE AL 00:43:3300:07:0200:43:2000:07:00
94629PAUL SCALICI36MBIRMINGHAM AL 00:43:4000:07:0300:43:3400:07:02
95173JULIE CROUSHORN44FPELHAM ALRESOLUTE RUNNING WOMEN00:43:4000:07:0300:43:3700:07:03
96393JOSEPH LAHR29MBIRMINGHAM AL 00:43:4400:07:0400:43:4000:07:03
97526JACOB NUTTER20MALGONAC MI 00:43:5000:07:0500:43:1100:06:58
98468SIMON MCVEY44MBIRMINGHAM AL 00:43:5200:07:0500:43:4800:07:04
99446SIDNEY MAYS55MVESTAVIA AL 00:43:5400:07:0500:43:5000:07:05
100329JIM HOOVER51MBIRMINGHAM AL 00:43:5800:07:0600:43:4800:07:04
101806STEVE ARCHER50MMUSCLE SHOALS AL 00:43:5900:07:0600:43:5500:07:05
102888RENATO CORBETTA47MBIRMINGHAM AL 00:44:1000:07:0800:43:5800:07:06
1031021ROGER WOOD41MBIRMINGHAM AL 00:44:1200:07:0800:44:0500:07:07
104570DAVID PLANTE54MBIRMINGHAM AL 00:44:1800:07:0900:44:1400:07:08
105229JOHN FORREST25MPELHAM AL 00:44:2000:07:0900:43:5900:07:06
106917MATT HOOD47MIRVINE CA 00:44:2400:07:1000:44:2100:07:10
107814MATTHEW COUCH31MMOUNTAIN BROOK ALCABANISS JOHNSTON00:44:2600:07:1000:44:1600:07:09
108467MARK MCTUNE51MHELENA AL 00:44:2900:07:1100:44:2500:07:10
109195STAN DORAN50MPELHAM AL 00:44:3000:07:1100:44:2600:07:10
110557CHARLIE PETERS30MBIRMINGHAM AL 00:44:3000:07:1100:44:2000:07:10
111768HAL WHITSITT33MVESTAVIA HILLS AL 00:44:3600:07:1200:44:2800:07:11
112434TODD MAPLE44MBIRMINGHAM AL 00:44:3700:07:1200:44:2800:07:11
113902YU FENG32MSTILLWATER OK 00:44:4300:07:1300:44:3500:07:12
114187ANNE DEBARDELEBEN34FBIRMINGHAM ALRESOLUTE RUNNING WOMEN00:44:4500:07:1400:44:3700:07:12
115105MURRAY BROMSTAD39FBIRMINGHAM AL 00:44:4700:07:1400:44:4100:07:13
116813CHRISTOPHER CAREY46MBIRMINGHAM AL 00:44:5100:07:1400:44:4100:07:13
117128J. WESLEY CAPUTO24MMONTGOMERY AL 00:44:5300:07:1500:44:3300:07:12
118220CHRIS FARRINGTON53MBIRMINGHAM AL 00:45:0100:07:1600:44:5600:07:15
119948JENNIFER MURRAY32FBIRMINGHAM AL 00:45:0200:07:1600:44:5600:07:15
12051JOHN ANDRESS13MHOMEWOOD ALRESOLUTE RUNNING COED00:45:1000:07:1800:45:1000:07:18
1211084JASON MURRAY35MHOOVER AL 00:45:1100:07:1800:45:0400:07:17
122891SAM CULBERTSON13MBIRMINGHAM AL 00:45:1300:07:1800:45:0900:07:17
123138JENNIFER CHRISTY47FBIRMINGHAM AL 00:45:1400:07:1800:45:0900:07:17
PlaceBibNAMEAgeSexCITY/STATETeamNameGunTimeGunPaceTagTimeTagPace
124880MARC BROMSTAD43MBIRMINGHAM AL 00:45:2000:07:1900:45:1400:07:18
125842LEE MATHIS30MHOOVER AL 00:45:2100:07:1900:44:5600:07:15
126878RYAN BLY27MMC CALLA AL 00:45:2600:07:2000:45:2400:07:20
127184RON DEAN47MBIRMINGHAM AL 00:45:3000:07:2100:45:2400:07:20
1281074MITSUO TSUKAMOTO51MDECATUR AL 00:45:3000:07:2100:45:0100:07:16
129421EDUARDO LOPEZ ANTA33MMOUNTAIN BROOK AL 00:45:3100:07:2100:45:2600:07:20
130169SCOTT CRAWFORD48MTRUSSVILLE ALRUNNINGLANE COED00:45:3300:07:2100:45:2600:07:20
131870GUY ABLE23MJASPER AL 00:45:3400:07:2100:45:1800:07:19
132591TREY REICH40MBIRMINGHAM AL 00:45:3500:07:2100:44:4900:07:14
133168ALLEN CRAWFORD50MSPRINGVILLE AL 00:45:3600:07:2200:45:3400:07:21
134638MATT SEARSON35MBIRMINGHAM AL 00:45:3700:07:2200:45:3700:07:22
135328ALISON HOOVER50FHOOVER AL 00:45:4000:07:2200:45:3100:07:21
136587NICK RAYBURN28MBIRMINGHAM AL 00:45:4200:07:2300:45:3600:07:22
137316EDWARD HINTON56MBIRMINGHAM AL 00:45:4200:07:2300:45:4100:07:23
138792RAY WORKMAN53MBIRMINGHAM AL 00:45:4400:07:2300:45:4000:07:22
139509LAUREN MURPHREE26FGARDENDALE AL 00:45:4500:07:2300:45:1600:07:19
140246MICHAEL GANN51MBIRMINGHAM ALCADENCE MEN00:45:4500:07:2300:45:4100:07:23
141933MARY BETH LEE41FHOOVER AL 00:45:5000:07:2400:45:4300:07:23
142345GREGORY IKNER31MBIRMINGHAM AL 00:45:5300:07:2400:45:3300:07:21
143747JOSH WATKINS35MTRUSSVILLE AL 00:45:5400:07:2500:45:4100:07:22
144785SPENCER WILSON19MPELHAM AL 00:45:5700:07:2500:45:4900:07:24
145272GREG GREAVES47MBIRMINGHAM AL 00:46:0500:07:2600:45:5800:07:25
146470MATTHEW MICHALKE33MODENVILLE AL 00:46:0900:07:2700:46:0300:07:26
147758ADAM WENDE38MVESTAVIA HILLS AL 00:46:0900:07:2700:45:4100:07:23
148179HARRY DAVID36MBIRMINGHAM AL 00:46:1700:07:2800:46:1000:07:27
149640TRAVIS SELF52MBIRMINGHAM AL 00:46:2100:07:2900:46:1200:07:27
150164JAMES COUNSELL54MPRATTVILLE AL 00:46:2700:07:3000:46:1900:07:29
1511096PATRICK BRANNON35MBIRMINGHAM AL 00:46:3500:07:3100:46:3000:07:30
152319TRICIA HOLBROOK55FBIRMINGHAM AL 00:46:4300:07:3300:46:3600:07:31
153506WIL MULLINS28MGADSDEN AL 00:46:4500:07:3300:46:3200:07:31
154854MEGHAN RALPH28FBIRMINGHAM AL 00:46:4500:07:3300:46:4000:07:32
PlaceBibNAMEAgeSexCITY/STATETeamNameGunTimeGunPaceTagTimeTagPace
155604KEVIN ROBERSON55MMOUNT OLIVE AL 00:46:5400:07:3400:46:5000:07:34
1561022DAVID MCKEE48MPINSON AL 00:46:5500:07:3400:46:1800:07:28
157139DAN CHU36MVESTAVIA HILLS AL 00:46:5800:07:3500:46:2900:07:30
1581042MICHELLE REID37FHOMEWOOD AL 00:47:0800:07:3700:46:5600:07:35
15969FRANK BARRY53MBIRMINGHAM AL 00:47:1000:07:3700:47:0200:07:35
1601080SCOTT SETTLE40MBIRMINGHAM AL 00:47:1300:07:3700:47:0700:07:36
161983LARRY MCQUISTON50MPHENIX CITY AL 00:47:1700:07:3800:47:0700:07:36
1621027RACHEL FRY41FBIRMINGHAM AL 00:47:1800:07:3800:46:3600:07:31
163416ADAM LINDSEY41MLEEDS ALRUNNINGLANE COED00:47:1900:07:3800:47:0900:07:37
1641058BROOKS VAUGHAN45MBIRMINGHAM AL 00:47:2200:07:3900:47:1300:07:37
165462PHILIP MCKEE53MPRATTVILLE AL 00:47:2800:07:4000:47:2000:07:38
1661048THOMAS WATSON41MVESTAVIA HILLS AL 00:47:3300:07:4100:47:2400:07:39
1671069CHUCK RADER46MHOOVER AL 00:47:3500:07:4100:47:2100:07:39
16861KELLY ATKINS32FBIRMINGHAM AL 00:47:3800:07:4100:47:2400:07:39
1691047ADAM WINGER35MHOMEWOOD AL 00:47:3800:07:4100:47:1800:07:38
170919SCOTT HOWARD35MBIRMINGHAM AL 00:47:5100:07:4300:47:4800:07:43
171379RYAN KIRBY30MBIRMINGHAM AL 00:47:5200:07:4400:47:4500:07:42
172658JASON SMITH47MBIRMINGHAM AL 00:47:5200:07:4400:47:4900:07:43
173374JAKE KENNAMER28MVESTAVIA HILLS AL 00:48:0000:07:4500:47:5400:07:44
174838LANDON LITTY38MBIRMINGHAM AL 00:48:0100:07:4500:47:4400:07:42
175982PARKER TURNER15MVESTAVIA AL 00:48:0400:07:4600:47:4700:07:43
176714STEVEN TROTTER42MHOOVER AL 00:48:0400:07:4600:47:5500:07:44
177458CARY MCDANIEL50MPRATTVILLE AL 00:48:1100:07:4700:48:0200:07:45
178507JORGE MUNOZ MOYA34MBIRMINGHAM AL 00:48:1300:07:4700:47:5600:07:44
179141ROY CLARKSON40MTRUSSVILLE AL 00:48:2100:07:4800:48:1200:07:47
1801025TAYLOR DONARD46MTRUSSVILLE AL 00:48:2300:07:4900:48:1700:07:48
181121THERESA BURST58FBIRMINGHAM AL 00:48:2500:07:4900:48:1600:07:48
182103HUNTER BRIDWELL33MBESSEMER AL 00:48:2700:07:4900:48:1500:07:47
183149NATHAN COLLINS40MHOOVER AL 00:48:3000:07:5000:48:2600:07:49
18453JENNIFER ANDRESS48FHOMEWOOD ALRESOLUTE RUNNING WOMEN00:48:3000:07:5000:48:1700:07:48
1851049JEFF GLAZE46MBIRMINGHAM AL 00:48:3800:07:5100:48:2700:07:49
PlaceBibNAMEAgeSexCITY/STATETeamNameGunTimeGunPaceTagTimeTagPace
186775PETER WILKIN39MTRUSSVILLE AL 00:48:4000:07:5100:48:3300:07:50
187263CATHERINE GOMEZ25FBIRMINGHAM AL 00:48:5400:07:5400:48:4100:07:52
1881040PERRY ANDERSON55MODENVILLE AL 00:48:5500:07:5400:48:4400:07:52
189615PAUL ROSS44MVESTAVIA AL 00:49:0000:07:5500:48:1800:07:48
1901071TOMOKUNI HASEGAWA38MOSAKA 00:49:0200:07:5500:48:3300:07:50
191827NORIYUKI HANASHIRO58MBIRMINGHAM AL 00:49:0300:07:5500:48:4800:07:53
192924JEN JACKSON47FHOMEWOOD AL 00:49:0300:07:5500:48:5000:07:53
193890JOSH CULBERTSON42MBIRMINGHAM AL 00:49:0800:07:5600:49:0200:07:55
194834SCOTT KEY53MJACKSONVILLE AL 00:49:1400:07:5700:48:3200:07:50
195494JASON MORRIS44MVESTAVIA AL 00:49:1500:07:5700:49:0100:07:55
196299JONATHAN HAY33MBIRMINGHAM AL 00:49:2100:07:5800:48:4900:07:53
197192DREW DICKERSON43MNORTHPORT AL 00:49:2200:07:5800:49:0000:07:55
198398JEFF LANCASTER36MBIRMINGHAM AL 00:49:2600:07:5900:49:0000:07:55
199697JOHN THETFORD46MTUSCALOOSA AL 00:49:3000:07:5900:49:0100:07:55
200251CHAD GAY39MBIRMINGHAM AL 00:49:3300:08:0000:49:0600:07:56
201893ANGEL DARMER34FBIRMINGHAM AL 00:49:4000:08:0100:48:3500:07:51
202666ERIC SMITH47MHOOVER AL 00:49:4100:08:0100:49:3600:08:00
203199MEGAN DRUMM34FBIRMINGHAM AL 00:49:4300:08:0100:49:2300:07:58
204249JASON GARWOOD40MBIRMINGHAM AL 00:49:4300:08:0200:49:2300:07:58
205732SAM VOGT56MVESTAVIA HILLS AL 00:49:4400:08:0200:49:2800:07:59
206261TANNER GLENN24MBIRMINGHAM AL 00:49:5500:08:0400:48:5700:07:54
207595MISTY REYNOLDS43FVESTAVIA AL 00:50:0000:08:0400:49:5400:08:03
2081023RUSTY HUGHES42MBIRMINGHAM AL 00:50:0100:08:0400:49:1500:07:57
209672AMANDA SOONG40FVESTAVIA HILLS AL 00:50:0300:08:0500:49:0200:07:55
21067RAMOND BANKS59MBIRMINGHAM AL 00:50:0400:08:0500:49:5300:08:03
211401DREW LANSDELL24MBIRMINGHAM AL 00:50:0800:08:0600:49:0900:07:56
21276JON BECKER35MBIRMINGHAM AL 00:50:0800:08:0600:49:4300:08:01
21363CHRISTOPHER BAGGETT42MBESSEMER ALRUNNINGLANE COED00:50:0800:08:0600:49:3100:08:00
214219PETER FALKNER35MBIRMINGHAM AL 00:50:1000:08:0600:49:4200:08:01
215649DANIEL SILBERGER29MHOMEWOOD AL 00:50:1000:08:0600:49:5000:08:03
216253MICHAEL GEER51MBIRMINGHAM AL 00:50:1100:08:0600:50:0400:08:05
PlaceBibNAMEAgeSexCITY/STATETeamNameGunTimeGunPaceTagTimeTagPace
217713NICK TOTH36MBIRMINGHAM AL 00:50:1500:08:0700:49:5900:08:04
218205JOHN EASON34MBIRMINGHAM AL 00:50:1600:08:0700:49:5700:08:04
219586JEFF RAY52MBIRMINGHAM AL 00:50:1800:08:0700:50:1200:08:06
220648JAMES SHOAF61MFULTONDALE AL 00:50:2400:08:0800:50:1900:08:07
2211065RYAN CANTOR36MBIRMINGHAM AL 00:50:2500:08:0800:50:1700:08:07
222436PATRICK MARTIN39MBIRMINGHAM AL 00:50:2600:08:0800:50:0700:08:05
223934SCOTT LEE44MHOOVER AL 00:50:2800:08:0900:49:4600:08:02
224766LAURIE WHITE34FBIRMINGHAM AL 00:50:3100:08:0900:50:1300:08:06
225624JOEY SAFFOLD47MBIRMINGHAM AL 00:50:3200:08:0900:50:1800:08:07
226539CHAD PALMORE35MBIRMINGHAM AL 00:50:3300:08:1000:50:2100:08:08
227332KELLY HORN48MFULTONDALE AL 00:50:4600:08:1200:50:3100:08:09
228275BRENDAN GRIFFIN27MBIRMINGHAM AL 00:50:4600:08:1200:50:3800:08:10
229700JAMIE THOMAS55FBIRMINGHAM AL 00:50:4700:08:1200:50:3500:08:10
230395JANE LAMB45FBIRMINGHAM AL 00:50:5000:08:1200:50:3600:08:10
231601HADEN RIDLEHOOVER45FBIRMINGHAM AL 00:50:5000:08:1200:50:3700:08:10
232765PHILLIP WHITE53MINDIAN SPRINGS AL 00:50:5000:08:1200:50:3100:08:09
233760STELLA WENNBERG30FWINFIELD AL 00:50:5100:08:1300:50:1200:08:06
234744DAVID WASHINGTON50MMERIDIANVILLE AL 00:51:0000:08:1400:50:4900:08:12
235336PHILIP HOUSLER31MBIRMINGHAM AL 00:51:0400:08:1500:50:3300:08:10
236159LAUREN CORNELIUS27FONEONTA AL 00:51:0700:08:1500:50:4400:08:11
237646GRETCHEN SHEPPARD36FBIRMINGHAM AL 00:51:0800:08:1500:50:5100:08:13
238239ROBERT FUNK53MPELL CITY AL 00:51:1200:08:1600:50:4700:08:12
239602JOSE RIVERA35MBIRMINGHAM AL 00:51:1400:08:1600:50:5500:08:13
240913THOMAS HALL56MBIRMINGHAM AL 00:51:1700:08:1700:50:5000:08:12
2411099SHANNON SHORR31MBIRMINGHAM AL 00:51:2000:08:1700:50:4700:08:12
242976UTA WENDLAND39FBESSEMER AL 00:51:2000:08:1700:50:4800:08:12
243262HOLLY GOFF39FBIRMINGHAM AL 00:51:2200:08:1700:50:4100:08:11
244985DAVID CONDON47MHOMEWOOD AL 00:51:2400:08:1800:51:0400:08:15
2451055MATTHEW WEATHERS38MBIRMINGHAM AL 00:51:2500:08:1800:51:0200:08:14
246425TIMOTHY LUPINACCI50MBIRMINGHAM AL 00:51:2700:08:1800:51:0800:08:15
247520TAYLOR NIEDER25FBIRMINGHAM AL 00:51:2900:08:1900:50:4900:08:12
PlaceBibNAMEAgeSexCITY/STATETeamNameGunTimeGunPaceTagTimeTagPace
248684JOHN STRAKA51MLEEDS AL 00:51:3000:08:1900:50:4700:08:12
24944AMELIA ALTZ-STAMM33FBIRMINGHAM AL 00:51:3600:08:2000:51:2400:08:18
250389JONATHAN KRESSUK19MFRANKLIN WI 00:51:3900:08:2000:50:5800:08:14
25177JOEY BENTLEY35MANNISTON AL 00:51:4800:08:2200:51:0600:08:15
25259JUSTIN ASHBY37MONEONTA AL 00:51:5000:08:2200:51:5000:08:22
253932SHILONQUA LEE39FBESSEMER ALRESOLUTE RUNNING WOMEN00:51:5200:08:2200:51:3200:08:19
2541051DAVID SCHROLL33MHOMEWOOD AL 00:51:5300:08:2200:51:1000:08:16
255680KELSEY STEIN27FBIRMINGHAM AL 00:51:5600:08:2300:51:4900:08:22
256211HEATHER ERON37FBIRMINGHAM AL 00:51:5700:08:2300:51:3300:08:19
257702STEVEN THOMPSON56MMOUNTAIN BROOK AL 00:51:5800:08:2300:51:3000:08:19
258613TOVAH ROSE36FBIRMINGHAM AL 00:51:5800:08:2300:51:1700:08:17
259612JASON ROSE39MHOOVER AL 00:51:5800:08:2300:51:1900:08:17
26052KEITH ANDRESS49MHOMEWOOD ALRELOLUTE RUNNING COED00:51:5900:08:2300:51:3800:08:20
261465MARY LEE MCMAHON49FBIRMINGHAM AL 00:52:0100:08:2400:51:3600:08:20
262394TYLER LAHTI26MBIRMINGHAM AL 00:52:0100:08:2400:51:5800:08:23
263479SALLY ANN MISSILDINE17FDECATUR AL 00:52:0100:08:2400:51:4000:08:20
264196EVAN DORMAN41MBIRMINGHAM AL 00:52:0200:08:2400:51:2700:08:18
265812MATTHEW BURROW29MBIRMINGHAM AL 00:52:0200:08:2400:51:0000:08:14
266908STEVE FOY49MBIRMINGHAM AL 00:52:0600:08:2500:51:4400:08:21
267131BRAD CARTER42MBIRMINGHAM AL 00:52:1200:08:2600:51:2200:08:18
268844JEFFREY MITCHELL47MBIRMINGHAM AL 00:52:1300:08:2600:52:0000:08:24
269396MICHAEL LAMBERT50MCHELSEA AL 00:52:1300:08:2600:51:4800:08:22
27047ASHLEY AMES38FHELENA AL 00:52:1300:08:2600:51:3800:08:20
271592ROBERT REICH38MBIRMINGHAM AL 00:52:1400:08:2600:51:2900:08:19
2721089GARY HOWELL57MFULTONDALE AL 00:52:1500:08:2600:51:4800:08:22
273912CODY GRISSOM35MJASPER AL 00:52:1500:08:2600:51:4400:08:21
274969JULIE TUCKER35FBIRMINGHAM AL 00:52:1700:08:2600:51:4300:08:21
275501MIKE MOSES42MBIRMINGHAM AL 00:52:1700:08:2600:51:4100:08:21
276224BLAKE FLYNT31MCULLMAN AL 00:52:1900:08:2700:51:3800:08:20
277571GREG POOLE56MBIRMINGHAM AL 00:52:2000:08:2700:52:1200:08:25
278366STACY KADLE54FHOMEWOOD AL 00:52:2000:08:2700:52:0300:08:24
PlaceBibNAMEAgeSexCITY/STATETeamNameGunTimeGunPaceTagTimeTagPace
279252MEREDITH GAY39FBIRMINGHAM AL 00:52:2000:08:2700:51:5200:08:22
280644LUKE SHANNON37MBIRMINGHAM AL 00:52:2000:08:2700:51:3500:08:20
281292ROBERT HARRIS34MLEEDS AL 00:52:2100:08:2700:51:3800:08:20
282670JUSTIN SMITHERMAN29MHELENA AL 00:52:2100:08:2700:51:5800:08:23
283518JESSICA NICHOLS26FBIRMINGHAM AL 00:52:2500:08:2800:52:0800:08:25
284945LANIER MILLSAP45MBIRMINGHAM AL 00:52:3000:08:2800:52:2100:08:27
285533AMBER ORTIZ26FBIRMINGHAM AL 00:52:3100:08:2900:51:3200:08:19
286167TERESA CRAIN49FVESTAVIA HILLS ALRUNNINGLANE COED00:52:3200:08:2900:52:2300:08:27
287565CHRIS PINTO25MHOMEWOOD AL 00:52:3400:08:2900:52:1400:08:26
28835BRYANT ADAMS41MWARRIOR AL 00:52:3400:08:2900:51:3200:08:19
289977LEE WICKS20MTUSCALOOSA AL 00:52:3900:08:3000:52:2700:08:28
290740LAURA CATHERIN WALLACE19FBRENTWOOD TN 00:52:3900:08:3000:52:2700:08:28
29137CARLOS AGEA29MBIRMINGHAM AL 00:52:4400:08:3100:52:2500:08:28
292951SHANE NORRIS38MQUINTON AL 00:52:4600:08:3100:52:1500:08:26
293683GREG STONE53MOXFORD AL 00:52:5000:08:3200:52:0700:08:25
294182KRISTIE DAY32FBIRMINGHAM AL 00:52:5600:08:3300:52:3600:08:29
295265CHERYL GOODWIN46FBIRMINGHAM AL 00:52:5700:08:3300:52:5200:08:32
29674JACOB BEATTY24MBIRMINGHAM AL 00:52:5700:08:3300:52:3500:08:29
297667JAMES SMITH57MBIRMINGHAM AL 00:53:0000:08:3300:52:5200:08:32
298554ROBERT PEEK24MBIRMINGHAM AL 00:53:0300:08:3400:52:3500:08:29
299214TAYLOR ESTES38FBIRMINGHAM AL 00:53:0400:08:3400:52:4500:08:31
300737ANDREA WALKER34FBIRMINGHAM AL 00:53:0800:08:3500:52:5200:08:32
301950BETH NORRIS37FQUINTON AL 00:53:0900:08:3500:52:3900:08:30
302669GRACE SMITHERMAN28FHELENA AL 00:53:1100:08:3500:52:4700:08:31
303155ASHLEY COMMINS39FBIRMINGHAM AL 00:53:1100:08:3500:52:3400:08:29
304517THE MIGHTY NERDNOF31MBIRMINGHAM AL 00:53:1700:08:3600:53:1700:08:36
305215BENJAMIN ETHERIEDGE40MWARRIOR AL 00:53:2200:08:3700:52:4000:08:30
306821THOMAS FLEMING56MHAMILTON AL 00:53:2300:08:3700:52:1100:08:25
307237RYAN FRIERY34MVESTAVIA HILLS AL 00:53:2500:08:3700:53:0000:08:33
308733CHASSI WADDELL29FFULTONDALE AL 00:53:2500:08:3700:52:4800:08:31
309331KYLIE HOPPER38FBIRMINGHAM AL 00:53:2700:08:3800:53:1100:08:35
PlaceBibNAMEAgeSexCITY/STATETeamNameGunTimeGunPaceTagTimeTagPace
310593JOSE REINA32MBIRMINGHAM AL 00:53:3000:08:3800:53:1100:08:35
311938KATHRYNE MARTIN42FBIRMINGHAM AL 00:53:3100:08:3800:53:0900:08:35
3121076MICHAEL DAVIS44MCUMMING GA 00:53:3400:08:3900:53:1400:08:36
3131036ANDREW MCKINNON42MBIRMINGHAM AL 00:53:3600:08:3900:52:5400:08:32
314238LISA FULLER57FBIRMINGHAM AL 00:53:3600:08:3900:53:2600:08:38
315619TYLER ROWE26MGARDENDALE AL 00:53:3700:08:3900:53:2800:08:38
316404BRIAN LAWSON36MTRUSSVILLE AL 00:53:4000:08:4000:53:2400:08:37
317135BRYAN CHACE60MBIRMINGHAM AL 00:53:4300:08:4000:53:3400:08:39
318278SATYA GULLAPALLI45MHOOVER AL 00:53:4400:08:4000:53:3200:08:38
319718NEILL TYLER47MPELHAM AL 00:53:4500:08:4100:53:2900:08:38
320364SARA JOYCE29FDENVER CO 00:53:4500:08:4100:53:2000:08:37
3211083MARY KATHRYN WOODS23FHOMEWOOD AL 00:53:4500:08:4100:53:2100:08:37
3221087KEITH WOODS52MVESTAVIA HILLS AL 00:53:4700:08:4100:53:2300:08:37
323995KENNETH FORTSON61MBIRMINGHAM AL 00:53:4800:08:4100:53:4100:08:40
324877TONY BLAKENEY60MBIRMINGHAM AL 00:53:4900:08:4100:53:1000:08:35
325862TREVOR STEPHENS28MDENVER CO 00:53:5300:08:4200:53:2900:08:38
326132ANDREW CASE35MBIRMINGHAM AL 00:53:5400:08:4200:53:0000:08:33
32791EKKEHARD BONATZ60MBIRMINGHAM AL 00:53:5600:08:4200:53:4100:08:40
3281006RONALD OLSEN54MMADISON AL 00:53:5900:08:4300:53:4400:08:40
329637ERIN SEARSON33FBIRMINGHAM AL 00:54:0000:08:4300:53:3000:08:38
330786ROBERT WINDSOR27MBIRMINGHAM AL 00:54:0500:08:4400:53:2600:08:37
331420DAVID LOPER52MBIRMINGHAM AL 00:54:0600:08:4400:53:3600:08:39
332428MARIA MADDEN31FBIRMINGHAM AL 00:54:0900:08:4400:53:1600:08:36
3331085TIM HARRIS46MHOOVER AL 00:54:1000:08:4500:53:2700:08:38
334886ALAN CHRISTIAN50MHOOVER AL 00:54:1200:08:4500:54:0400:08:44
335408HEATHER LEE39FBIRMINGHAM AL 00:54:1500:08:4500:53:5200:08:42
336899JACKSON ENGEL15MBIRMINGHAM AL 00:54:1500:08:4500:53:5400:08:42
337392HANNA LAHR28FBIRMINGHAM AL 00:54:1500:08:4500:53:5300:08:42
338898CHRISTOPHER ENGEL47MBIRMINGHAM AL 00:54:1500:08:4500:54:1500:08:45
339376ALI KILIC39MBIRMINGHAM AL 00:54:2100:08:4600:54:0400:08:44
340911WILLIAM GREENWALD50MBIRMINGHAM AL 00:54:2400:08:4700:53:5100:08:42
PlaceBibNAMEAgeSexCITY/STATETeamNameGunTimeGunPaceTagTimeTagPace
3411005KEVIN RUGGIERO36MBIRMINGHAM AL 00:54:2500:08:4700:54:0100:08:43
342997MARK DUNN57MTRUSSVILLE AL 00:54:2600:08:4700:53:5600:08:42
343422ANDREW LOVE49MVESTAVIA HILLS AL 00:54:2600:08:4700:54:2100:08:46
344616JOEY ROSSER52MHOOVER AL 00:54:2600:08:4700:53:2900:08:38
345853JUSTIN PRITCHARD24MBIRMINGHAM AL 00:54:3600:08:4900:54:1100:08:45
346715KACY TUCKER27FMOUNT OLIVE AL 00:54:3600:08:4900:54:1900:08:46
347310JOHN HIGH52MHOMEWOOD AL 00:54:3800:08:4900:54:1000:08:45
34848REYNOLDS ANDERSON33MBIRMINGHAM AL 00:54:3800:08:4900:54:0900:08:45
349240JEFFREY FUQUA49MBIRMINGHAM AL 00:54:4200:08:5000:53:5900:08:43
350413CHRIS LENOIR42MCALERA AL 00:54:4200:08:5000:54:0600:08:44
351478JULIE MISSILDINE53FDECATUR AL 00:54:4400:08:5000:54:2300:08:47
352513LISA NAGY50FBIRMINGHAM AL 00:54:4700:08:5100:54:3100:08:48
353879GEOFFREY BOSTANY25MBIRMINGHAM AL 00:54:5000:08:5100:54:4500:08:50
354756AMI WEEMS42FBIRMINGHAM AL 00:54:5500:08:5200:53:4300:08:40
355725WARREN VANDENTOP44MBIRMINGHAM AL 00:54:5600:08:5200:54:2600:08:47
356620FREDDY RUBIO45MBIRMINGHAM AL 00:54:5600:08:5200:54:4500:08:50
3571008RYAN WHITLEY54MPINSON AL 00:55:0100:08:5300:54:3000:08:48
358796LESLIE WRIGHT35FBIRMINGHAM AL 00:55:0200:08:5300:54:5100:08:51
3591078SCOTT TURNER50MBIRMINGHAM AL 00:55:0400:08:5300:54:4100:08:50
3601070ANIL CHADHA38MHOMEWOOD AL 00:55:0400:08:5300:54:3200:08:48
36140CHRISTOPHER ALBANY36MBIRMINGHAM AL 00:55:0600:08:5400:55:0000:08:53
362574JEAN POWERS53FMOBILE AL 00:55:0800:08:5400:54:1200:08:45
363324LAUREN HOLT22FBIRMINGHAM AL 00:55:0900:08:5400:54:4100:08:50
364749CHRIS WATSON38MTRUSSVILLE AL 00:55:1000:08:5400:54:3600:08:49
365185KATHERINE DEASE38FBIRMINGHAM AL 00:55:1100:08:5400:55:0000:08:53
366493DAVID MORRIS33MBIRMINGHAM AL 00:55:1100:08:5400:55:0400:08:53
367414PATRICK LEWIS33MHOOVER AL 00:55:1200:08:5500:54:2300:08:47
3681092BRITTANY DECKER27FBIRMINGHAM AL 00:55:1400:08:5500:55:0000:08:53
3691061KARI HOGUE39FVESTAVIA AL 00:55:1600:08:5500:54:3900:08:49
370884OCTAVIO CAVIEDES54MVESTAVIA HILLS AL 00:55:1900:08:5600:54:4400:08:50
371729RODRIGO VELASCO SANCHO32MBIRMINGHAM AL 00:55:1900:08:5600:55:0000:08:53
PlaceBibNAMEAgeSexCITY/STATETeamNameGunTimeGunPaceTagTimeTagPace
372952WAYNE NORRIS59MBIRMINGHAM AL 00:55:2500:08:5700:55:1400:08:55
373158CARA COOPER22FBIRMINGHAM AL 00:55:2700:08:5700:55:2100:08:56
374625MELISSA SANCHEZ29FFULTONDALE AL 00:55:2900:08:5700:54:5300:08:52
375124CHRIS CALLAHAN40MBIRMINGHAM AL 00:55:2900:08:5700:54:5100:08:51
376497MICHAEL MORRISSEY65MBIRMINGHAM AL 00:55:3500:08:5800:54:5000:08:51
377817SIGIFREDO DURAN42MPINSON AL 00:55:3600:08:5800:54:5200:08:51
378273JAMES GREEN39MBIRMINGHAM AL 00:55:3700:08:5900:54:3500:08:49
37992AMY BONKA28FBIRMINGHAM AL 00:55:4100:08:5900:55:2800:08:57
380426CARLOS LUZURIAGA37MHOMEWOOD AL 00:55:4100:08:5900:55:2400:08:57
381156ELIZABETH COMPTON42FBIRMINGHAM AL 00:55:4300:09:0000:55:2800:08:57
382815WILL DAVIS35MBIRMINGHAM AL 00:55:4700:09:0000:54:5400:08:52
383193ANNE DIGGS41FBIRMINGHAM AL 00:55:4700:09:0000:55:2300:08:56
384489CARA MORANTZ33FBIRMINGHAM AL 00:55:4800:09:0000:55:2700:08:57
3851056MARK MOLSON35MBIRMINGHAM AL 00:55:5000:09:0100:55:2900:08:57
386309ALEJANDRA HERNANDEZ ORTIZ28FBIRMINGHAM AL 00:55:5100:09:0100:55:3300:08:58
387743KYLE WARRAM37MHELENA AL 00:55:5500:09:0100:55:2300:08:56
388964DEANNA STEELE56FTUSCALOOSA AL 00:55:5500:09:0200:55:4300:09:00
3891017JOSEPH KEENER45MBIRMINGHAM AL 00:55:5600:09:0200:55:1300:08:55
390437KATIE MATCHEN27FBIRMINGHAM AL 00:55:5600:09:0200:55:4700:09:00
391968CEDRICK THOMAS42MBIRMINGHAM AL 00:55:5700:09:0200:54:5600:08:52
392599EMILY RICHEY26FTUSCALOOSA AL 00:56:0100:09:0300:55:0400:08:53
393560BRIDGET PHILLIPS39FTRUSSVILLE AL 00:56:0500:09:0300:55:3000:08:58
394325MIKE HOOD58MSPRINGVILLE AL 00:56:0800:09:0400:56:0500:09:03
395548MELANIE PAUL51FLOUISVILLE MS 00:56:0800:09:0400:55:3800:08:59
396549ROBERT PAUL54MLOUISVILLE MS 00:56:0800:09:0400:55:3800:08:59
3971041BILL JACKA JR49MHOMEWOOD AL 00:56:1100:09:0400:55:2400:08:57
398354LAUREN JOHNSEY35FBIRMINGHAM AL 00:56:1200:09:0400:55:1600:08:55
399552JULIE PEARCE44FBIRMINGHAM ALRESOLUTE RUNNING COED00:56:1500:09:0500:55:4500:09:00
400688CHAD SUMMERS44MTRUSSVILLE AL 00:56:1500:09:0500:55:3900:08:59
40156AMY ARMSTRONG41FSPANISH FORT AL 00:56:1600:09:0500:55:4900:09:01
402596CATHERINE RHODES41FGOLDEN CO 00:56:1600:09:0500:55:4900:09:01
PlaceBibNAMEAgeSexCITY/STATETeamNameGunTimeGunPaceTagTimeTagPace
403940TREY MCCLURE39MBIRMINGHAM AL 00:56:1700:09:0500:56:0200:09:03
40449ERICA ANDERSON41FBIRMINGHAM AL 00:56:1800:09:0500:55:5700:09:02
40587DYLAN BLACK48MBIRMINGHAM AL 00:56:2000:09:0600:56:0300:09:03
406418CLAIRE LONG34FBIRMINGHAM AL 00:56:2400:09:0600:55:5900:09:02
407524ALLIE NORTON23FHOMEWOOD AL 00:56:2600:09:0600:56:1200:09:04
408375GREGORY KENNEDY46MBIRMINGHAM AL 00:56:2600:09:0700:55:5700:09:02
409370DAVID KEARLEY13MCOLUMBIANA AL 00:56:2700:09:0700:56:2000:09:05
410496PHIL MORRIS45MCOLUMBIANA AL 00:56:2800:09:0700:55:4900:09:01
411268VINCENT GRAFFEO38MBIRMINGHAM AL 00:56:3000:09:0700:55:3600:08:58
412663MEGAN SMITH19FHUNTSVILLE AL 00:56:3000:09:0700:56:1700:09:05
413540SUKESH PARAMESWARAN47MMADISON AL 00:56:3100:09:0700:56:1400:09:05
414170JUSTIN CROCKER28MDORA AL 00:56:3300:09:0800:55:2700:08:57
415926LUKE JONES31MBIRMINGHAM AL 00:56:3500:09:0800:56:0200:09:03
416367KIM KANE49FVESTAVIA AL 00:56:3700:09:0800:56:1400:09:05
417148BRANDON COLLINS42MCALERA AL 00:56:4100:09:0900:56:1700:09:05
418106JAMES BROOME63MBIRMINGHAM AL 00:56:4500:09:1000:55:5900:09:02
419755LANCE WEEKS52MMOUNT OLIVE AL 00:56:4600:09:1000:55:4200:09:00
420873LESLIE ARMSTRONG38FTRUSSVILLE AL 00:56:4600:09:1000:56:1200:09:04
4211052JASON DUNCAN36MBIRMINGHAM AL 00:56:4800:09:1000:56:3000:09:07
422881CHARLES BROWNING68MPELL CITY AL 00:56:5100:09:1100:56:3700:09:08
423971ANA TUCKER40FTRUSSVILLE AL 00:56:5800:09:1200:56:2700:09:07
424235KRISTINA FREYMUTH43FFREISING 00:56:5900:09:1200:56:1200:09:04
425305DOUGLAS HENSON47MBIRMINGHAM AL 00:57:0200:09:1200:56:2300:09:06
426607ROD ROBINSON49MBIRMINGHAM ALRESOLUTE RUNNING COED00:57:0400:09:1300:56:3700:09:08
427988DIANA BLACKWELL31FBIRMINGHAM AL 00:57:0800:09:1300:56:5300:09:11
428989EMMA GRACE WATSON12FBIRMINGHAM AL 00:57:1100:09:1400:56:4200:09:09
4291050EMILY SCHROLL29FHOMEWOOD AL 00:57:1100:09:1400:56:2900:09:07
430856GORDIE ROBINSON60MBIRMINGHAM AL 00:57:1200:09:1400:56:1900:09:05
431661KYLE SMITH47MCLANTON AL 00:57:1400:09:1400:56:3700:09:08
432800THOMAS YERBY25MHOOVER AL 00:57:1500:09:1400:57:0200:09:12
433350KAKI JENKINS53FBIRMINGHAM AL 00:57:1600:09:1500:56:3900:09:09
PlaceBibNAMEAgeSexCITY/STATETeamNameGunTimeGunPaceTagTimeTagPace
434935DEJARVIS LEONARD II25MBESSEMER AL 00:57:1800:09:1500:56:5100:09:11
435741SAM WARBINGTON61MBIRMINGHAM AL 00:57:2000:09:1500:57:1400:09:14
436583JAMEY RAMSEY35MTRUSSVILLE AL 00:57:2000:09:1500:56:3400:09:08
437623MEAGHAN RYAN34FBIRMINGHAM ALRESOLUTE RUNNING WOMEN00:57:2000:09:1500:56:4300:09:09
438151CHRIS COLPACK50MBIRMINGHAM AL 00:57:2000:09:1500:56:3400:09:08
439402KATHRYN LAVENDER46FBIRMINGHAM AL 00:57:2000:09:1500:57:0600:09:13
440382ANN KLASNER50FBIRMINGHAM ALRESOLUTE RUNNING COED00:57:2200:09:1600:56:4500:09:10
441584MICHELLE RAMSEY33FTRUSSVILLE AL 00:57:2300:09:1600:56:3700:09:08
44280SURYA BHATT39MBIRMINGHAM AL 00:57:2400:09:1600:57:0300:09:13
443371STEPHEN KEARLEY38MCOLUMBIANA AL 00:57:2500:09:1600:57:1200:09:14
444970VERONICA TUCKER46FBIRMINGHAM AL 00:57:2500:09:1600:56:5400:09:11
445144APRIL CLOUD44FODENVILLE AL 00:57:2700:09:1600:56:5100:09:11
446772RANDY WILHITE63MDORA AL 00:57:2800:09:1600:57:1600:09:15
447617BARBARA ROURKE52FBIRMINGHAM AL 00:57:2800:09:1700:56:5100:09:11
448654MIKE SLOANE60MBIRMINGHAM AL 00:57:2800:09:1700:55:5900:09:02
449126MATTHEW CAMPBELL19MMEDWAY MA 00:57:3100:09:1700:56:5000:09:10
450784JULIE WILSON39FCLANTON AL 00:57:3200:09:1700:57:1100:09:14
45170JENNY BARRY50FVESTAVIA AL 00:57:3200:09:1700:57:2100:09:15
452556STEVE PENLEY57MCLANTON AL 00:57:3200:09:1700:57:1100:09:14
453867JENNIFER WALKER-JOURNEY49FHOMEWOOD AL 00:57:3300:09:1700:57:0300:09:13
454761ASHLEY WERCHANOWSKYJ41FHOOVER AL 00:57:3500:09:1800:56:3700:09:08
455701SARA THOMPSON36FHOMEWOOD AL 00:57:3700:09:1800:57:1400:09:14
456782ARLYNN WILSON57MHUNTSVILLE AL 00:57:3700:09:1800:56:4700:09:10
457981MARGARET TURNER48FVESTAVIA AL 00:57:3900:09:1800:57:2200:09:16
4581020TANYA NIX49FBIRMINGHAM AL 00:57:3900:09:1800:57:2300:09:16
459102GEORGIA BRENNAN48FBIRMINGHAM AL 00:57:4100:09:1900:57:0100:09:12
460580STEVEN PURDY57MTRUSSVILLET AL 00:57:4200:09:1900:57:2000:09:15
461810KIM BLACKENBURG35FBIRMINGHAM AL 00:57:4300:09:1900:57:1900:09:15
462900CARLEY EZZELL32FBIRMINGHAM AL 00:57:4300:09:1900:57:1200:09:14
463191EMILY DEVRIESE19FGRAND RAPIDS MI 00:57:4700:09:2000:57:0700:09:13
464921VALERIE HUGHES42FPRATTVILLE AL 00:57:4800:09:2000:57:1100:09:14
PlaceBibNAMEAgeSexCITY/STATETeamNameGunTimeGunPaceTagTimeTagPace
4651066CHRIS HOLMES44MBIRMINGHAM AL 00:57:5000:09:2000:56:5000:09:10
466282BRYAN HANCOCK44MBIRMINGHAM AL 00:57:5000:09:2000:57:2600:09:16
4671034SCOTT PADGITT51MBIRMINGHAM AL 00:57:5000:09:2000:56:5000:09:10
468692GINGER TALLENT56FKIMBERLY AL 00:58:0000:09:2200:57:3800:09:18
469730ADAM VISE27MBIRMINGHAM AL 00:58:0100:09:2200:57:3200:09:17
470896HEATHER DYKES42FTRUSSVILLE AL 00:58:0200:09:2200:57:1400:09:14
4711001SKIP MATHEWS60MTRUSSVILLE AL 00:58:0300:09:2200:57:4200:09:19
472816LINDSAY DEVENING40FBIRMINGHAM AL 00:58:0400:09:2200:57:4800:09:20
473317ANGIE HOGELAND42FONEONTA AL 00:58:0500:09:2300:57:5800:09:21
474531BEN ONI71MAUBURN AL 00:58:0600:09:2300:57:4100:09:19
475383NATHAN KLENKE25MBIRMINGHAM AL 00:58:0600:09:2300:57:0700:09:13
476895TONYA DRINKARD31FIRONDALE AL 00:58:0600:09:2300:57:3400:09:18
477445TRACEY MAY28FTRUSSVILLE AL 00:58:0700:09:2300:57:5200:09:20
478679RACHEL STARK27FBIRMINGHAM AL 00:58:0700:09:2300:57:5200:09:20
479563ALEX PHIPPS26FBIRMINGHAM AL 00:58:0700:09:2300:57:3700:09:18
480236DEAN FRIERY39MWEST MONROE LA 00:58:0800:09:2300:57:4300:09:19
481427SIMMONS LYONS34MMAYLENE AL 00:58:1000:09:2300:57:0900:09:13
482172ASHLEY CROCKETT32FGARDENDALE AL 00:58:1600:09:2400:57:4200:09:19
483323RONNY HOLLAWAY63MBIRMINGHAM AL 00:58:1800:09:2500:57:4800:09:20
484264JONATHAN GOMEZ29MBIRMINGHAM AL 00:58:2000:09:2500:58:0500:09:23
485903JANNA FIELDS36FBIRMINGHAM AL 00:58:2200:09:2500:57:4800:09:20
486978JORDAN WILKES30MBIRMINGHAM AL 00:58:2200:09:2500:57:5000:09:20
487119JEFF BURBANK55MMAYLENE AL 00:58:2300:09:2500:58:0800:09:23
488356BRIAN JOHNSON31MBIRMINGHAM AL 00:58:2300:09:2500:57:5100:09:20
489327CHRIS HOOKS41MBIRMINGHAM AL 00:58:2500:09:2600:57:4400:09:19
490855DAVID REDDEN47MBIRMINGHAM AL 00:58:2700:09:2600:57:2000:09:15
491984JENNIFER CROKER41FHOOVER AL 00:58:2700:09:2600:57:2100:09:15
492484STEPHEN MONTI47MHOOVER AL 00:58:2800:09:2600:57:4700:09:20
493872CHRISTINA ANDREEN31FBIRMINGHAM AL 00:58:3000:09:2600:57:3400:09:18
494298MATT HAUBER36MOOLTEWAH TN 00:58:3400:09:2700:57:1900:09:15
495514ANDREW NEIGEL57MATHABASCA CA 00:58:3500:09:2700:58:1400:09:24
PlaceBibNAMEAgeSexCITY/STATETeamNameGunTimeGunPaceTagTimeTagPace
496217DEBBIE EVANS59FSPRINGVILLE AL 00:58:3600:09:2700:57:5700:09:21
497403JOSEPH LAWHORN34MHOOVER AL 00:58:3700:09:2800:58:0000:09:22
498255MEREDITH GEORGE36FCALERA AL 00:58:4100:09:2800:58:1800:09:25
499242KARMEN GAINES22FBIRMINGHAM AL 00:58:4100:09:2800:58:1300:09:24
500626JOSE SANCHEZ MARQUEZ36MBIRMINGHAM AL 00:58:4100:09:2800:58:2200:09:25
501728JASE VANN33MBIRMINGHAM AL 00:58:4200:09:2800:58:1000:09:23
502826JAYNE HAFIZI24FMOBILE AL 00:58:4300:09:2900:57:5500:09:21
503864KASEY TUCKER25FBIRMINGHAM AL 00:58:4300:09:2900:57:5500:09:21
504653ROBERT SIMS59MHOMEWOOD AL 00:58:4300:09:2900:58:0600:09:23
505244BLAIR GAITHER21FBIRMINGHAM AL 00:58:4900:09:3000:57:3800:09:18
506481STEPHANIE MITCHELL20FTUSCALOOSA AL 00:58:5100:09:3000:58:1000:09:23
507724PATRICK VANDE LUNE25MBIRMINGHAM AL 00:58:5100:09:3000:57:4400:09:19
508807RUSS BAILEY39MIRONDALE AL 00:58:5400:09:3000:58:2700:09:26
5091007MIKE BRYAN62MMOUNT OLIVE AL 00:58:5400:09:3000:58:4000:09:28
5101088ANNE GAZZINI27FVESTAVIA AL 00:58:5900:09:3100:57:5200:09:20
5111086KATHERINE TISDALE26FVESTAVIA AL 00:58:5900:09:3100:57:5300:09:21
5121054ANDREW GREENWALD25MBIRMINGHAM AL 00:59:0000:09:3100:58:3700:09:28
513543LANCE PARMER29MBIRMINGHAM ALCABANISS JOHNSTON00:59:0100:09:3200:58:2800:09:26
514866KATY VENARD31FBIRMINGHAM AL 00:59:0300:09:3200:58:4700:09:29
515326KIMBERLY HOOKS41FBIRMINGHAM AL 00:59:0300:09:3200:58:2200:09:25
516271JESSICA GRAYSON29FBIRMINGHAM AL 00:59:0400:09:3200:58:4400:09:29
517787BROOKE WINGARD35FHOOVER AL 00:59:0500:09:3200:58:2400:09:26
518406DEAN LEADER64MBIRMINGHAM AL 00:59:0500:09:3200:58:4100:09:28
519611BETH ROSE42FBIRMINGHAM ALRESOLUTE RUNNING COED00:59:0800:09:3300:58:3200:09:27
520118BRETT BURBANK22MMAYLENE AL 00:59:1300:09:3400:58:5800:09:31
521512MARK MYERS59MBIRMINGHAM AL 00:59:1500:09:3400:58:3600:09:28
522923KEN HYATT53MBIRMINGHAM AL 00:59:1700:09:3400:58:0600:09:23
52375TASHA BEATY42FSTERRETT AL 00:59:1900:09:3400:58:3200:09:27
5241000ROBIN MARK39FBIRMINGHAM AL 00:59:2200:09:3500:58:5300:09:30
525456SAMANTHA MCCLUNEY40FCHELSEA AL 00:59:2400:09:3500:58:3100:09:27
526871CHAD ANDERSON45MLEEDS AL 00:59:2500:09:3500:58:4500:09:29
PlaceBibNAMEAgeSexCITY/STATETeamNameGunTimeGunPaceTagTimeTagPace
527698JEFF THOMAS42MLEEDS AL 00:59:2500:09:3500:58:4400:09:29
528228DIXIE FORD41FBIRMINGHAM AL 00:59:2500:09:3500:58:3600:09:27
529302JESSICA HEINE34FBIRMINGHAM AL 00:59:2900:09:3600:59:1900:09:34
530532CARLOS ORIHUELA43MHOMEWOOD AL 00:59:3500:09:3700:58:5600:09:31
531920STEPHANIE HUBBARD35FBIRMINGHAM ALRESOLUTE RUNNING COED00:59:3700:09:3700:58:3700:09:28
5321060RAY CARTER57MSHANNON AL 00:59:3800:09:3700:59:2700:09:36
533480SCOTT MISSILDINE54MDECATUR AL 00:59:3800:09:3800:59:1600:09:34
534966ELANA SWINEY40FBIRMINGHAM AL 00:59:4200:09:3800:59:1700:09:34
5351067GAIL BEVIER63FBIRMINGHAM AL 00:59:4200:09:3800:58:4700:09:29
536835BARRY KEY52MWILSONVILLE AL 00:59:4400:09:3900:59:0000:09:31
537841ALLEN MARCHINO42MBIRMINGHAM AL 00:59:4600:09:3900:58:5900:09:31
538201CINDY DUKE64FBIRMINGHAM AL 00:59:4600:09:3900:58:5700:09:31
539600ANDREW RICKLES40MPINSON AL 00:59:4900:09:3900:59:0500:09:32
540250BRITTANY GASKIN26FBIRMINGHAM AL 00:59:5000:09:3900:59:2100:09:35
541306LANE HENSON17FBIRMINGHAM AL 00:59:5000:09:3900:59:1100:09:33
5421044CHRIS BROWN49MVESTAVIA AL 00:59:5300:09:4000:58:4900:09:30
543473MARY T. MILLER39FBIRMINGHAM AL 00:59:5300:09:4000:59:0500:09:32
544435ANDREW MARLIN51MBIRMINGHAM AL 00:59:5300:09:4000:59:0100:09:32
545279JIM HAGER45MLEEDS AL 00:59:5300:09:4000:59:3100:09:36
546929TERRY KNIGHT45MBIRMINGHAM AL 00:59:5600:09:4000:59:1500:09:34
547883TOMMYE BYRD31FHOOVER AL 00:59:5700:09:4100:59:0600:09:32
5481073KEVIN BURKE39MBIRMINGHAM AL 00:59:5800:09:4100:59:2700:09:36
549825LANDON GOFF12MBRENTWOOD TN 00:59:5800:09:4100:59:5100:09:40
550647RONALD SHINN67MBIRMINGHAM AL 00:59:5900:09:4100:59:3600:09:37
551839RAMZI MALEK55MONEONTA AL 01:00:0200:09:4100:59:1100:09:33
5521045AMANDA WELLS28FBIRMINGHAM AL 01:00:0500:09:4200:59:4700:09:39
5531075BROOKE HOLBERT45MVESTAVIA HILLS AL 01:00:0500:09:4200:59:2400:09:35
554555JASON PENG28MBIRMINGHAM AL 01:00:0500:09:4200:59:4600:09:39
555852BROOKE POIRIER44FLEEDS AL 01:00:0600:09:4200:59:2800:09:36
556490HILARY MORENO46FBIRMINGHAM AL 01:00:0900:09:4300:59:3700:09:37
557795KELLY WRIGHT44FTRUSSVILLE AL 01:00:0900:09:4300:59:3700:09:37
PlaceBibNAMEAgeSexCITY/STATETeamNameGunTimeGunPaceTagTimeTagPace
558566KAYLA PINTO24FHOMEWOOD AL 01:00:1200:09:4300:59:5200:09:40
559845JAMES MOODY31MMOODY AL 01:00:1400:09:4300:59:2500:09:35
560754NANCY WEBB45FGULF SHORES AL 01:00:1500:09:4400:59:2400:09:35
561146LISA COLECCHIA39FAURORA IL 01:00:1600:09:4400:59:4000:09:38
562558BRANDON PETTIT44MBIRMINGHAM AL 01:00:1700:09:4400:59:5100:09:40
563999MIKE MORRIS49MVESTAVIA HILLS AL 01:00:1700:09:4400:59:3800:09:37
564717RICHARD TURNBULL56MBIRMINGHAM AL 01:00:1900:09:4401:00:0500:09:42
565671GENE SNOW61MALPHARETTA GA 01:00:1900:09:4401:00:0100:09:41
566300MARCIE HAYNIE44FBIRMINGHAM AL 01:00:1900:09:4401:00:0300:09:41
567266K GORDON40MBIRMINGHAM AL 01:00:2000:09:4401:00:0600:09:42
568537IRMA PALMER49FBIRMINGHAM ALRESOLUTE RUNNING COED01:00:2100:09:4401:00:0600:09:42
569257KATIE GIBSON32FBIRMINGHAM AL 01:00:2900:09:4601:00:0000:09:41
570459WILLIE MCDANIEL43MHOOVER ALCADENCE MEN01:00:2900:09:4601:00:1300:09:43
571931MATTHEW LEDUKE45MGUIN AL 01:00:3400:09:4700:59:2000:09:35
572221CLARE FARROW22FTUSCALOOSA AL 01:00:3500:09:4700:59:5300:09:40
57379CAROLINE BESHEARS19FFRANKLIN TN 01:00:3600:09:4700:59:5900:09:41
574213PAUL ESTEP35MMC CALLA AL 01:00:3900:09:4701:00:0800:09:42
575160LARONDA CORRIN46FBIRMINGHAM AL 01:00:4000:09:4701:00:2800:09:46
576930CHRISTY LEDUKE43FGUIN AL 01:00:4200:09:4800:59:2900:09:36
577990ROBBY WATSON43MBIRMINGHAM AL 01:00:4900:09:4901:00:1400:09:43
578581ASH QUAKENBUSH37MCHELSEA AL 01:00:5000:09:4901:00:0100:09:41
579303VICTOR HENKEN54MBIRMINGHAM AL 01:00:5500:09:5001:00:3900:09:47
580508CHRISTIE MURCHISON28FBIRMINGHAM AL 01:00:5600:09:5001:00:1100:09:43
581986STACEY FRICKE44FGARDENDALE AL 01:01:0100:09:5101:00:3600:09:47
582444KEVIN MAUGHAN41MPELHAM ALCABANISS JOHNSTON01:01:0600:09:5201:00:3300:09:46
583622BETH RYAN33FLEEDS AL 01:01:0800:09:5201:00:4700:09:49
584120JENIFER BURKE45FBIRMINGHAM AL 01:01:1100:09:5301:00:4300:09:48
58573BUTCH BEACH41MMOUNTAIN BROOK AL 01:01:1300:09:5301:00:2900:09:46
586892DAVID CULLIGHAN47MBIRMINGHAM AL 01:01:1300:09:5301:00:2900:09:46
587949NICK NELSON32MBIRMINGHAM AL 01:01:1700:09:5301:00:4400:09:48
588759FRANK WENNBERG41MWINFIELD AL 01:01:1900:09:5401:00:4100:09:48
PlaceBibNAMEAgeSexCITY/STATETeamNameGunTimeGunPaceTagTimeTagPace
58971MEG BASHINSKY48FBIRMINGHAM AL 01:01:2100:09:5401:00:5100:09:49
590177SHAWN CUSTRED23MSMITHS STATION AL 01:01:2100:09:5401:00:3600:09:47
591308ARTHUR HERBERT36MMONTEVALLO AL 01:01:2100:09:5401:01:2100:09:54
592655HALEY SMITH29FBIRMINGHAM AL 01:01:2300:09:5401:00:5200:09:50
593818BELINDA ECKHOFF35FBIRMINGHAM AL 01:01:2900:09:5501:00:5900:09:50
594657JORDAN SMITH25MBIRMINGHAM AL 01:01:3100:09:5601:00:3300:09:46
595330JAMI HOPPER38FTRUSSVILLE AL 01:01:3200:09:5601:00:5600:09:50
596641LAURA SENN35FBIRMINGHAM AL 01:01:3200:09:5601:01:1000:09:52
59795RICHARD BOTTSFORD60MBIRMINGHAM AL 01:01:3200:09:5601:00:5700:09:50
5981095RANDY ALDRICH52MTRUSSVILLE AL 01:01:3300:09:5601:00:4700:09:49
599630DOUG SCARBOROUGH40MBIRMINGHAM AL 01:01:3300:09:5601:00:5800:09:50
60055THOMAS ARMSTRONG65MBIRMINGHAM AL 01:01:3300:09:5601:01:1700:09:54
601108RICHARD BROOME62MBIRMINGHAM AL 01:01:3500:09:5601:00:3100:09:46
602690SUSAN SWAGLER52FBIRMINGHAM AL 01:01:3600:09:5701:01:1100:09:53
603937JOHN LOSSIE54MPELHAM AL 01:01:3900:09:5701:00:5300:09:50
604705BRANDON THURBER35MBIRMINGHAM AL 01:01:4000:09:5701:00:4500:09:48
605829PAUL HOFFMAN52MBIRMINGHAM AL 01:01:4100:09:5701:01:0500:09:51
606225CATIE FLYNT28FCULLMAN AL 01:01:4600:09:5801:01:0400:09:51
607452ANNE MCCABE34FMOUNT OLIVE AL 01:01:5300:09:5901:01:2000:09:54
608243TAMMY GAINES54FBIRMINGHAM AL 01:01:5900:10:0001:01:3100:09:56
6091064GAVIN BLAKELEY31MMOUNTAIN BROOK AL 01:02:0300:10:0101:01:2700:09:55
610231RACHAEL FOWLER36FWARRIOR AL 01:02:0500:10:0101:00:5100:09:49
6111082LARRY JOHNSON65MVESTAVIA AL 01:02:0600:10:0101:01:2800:09:55
612180SARINA DAVIS39FPELHAM AL 01:02:0700:10:0101:01:4300:09:58
61396LEISHA BOWMAN35FBIRMINGHAM AL 01:02:0900:10:0201:01:1700:09:54
614882TIFFANY BRUCE26FBIRMINGHAM AL 01:02:1100:10:0201:01:4500:09:58
615315NICHOLAS HILL II52MPINSON AL 01:02:1200:10:0201:01:2000:09:54
616577JOHN PRESTRIDGE33MALABASTER AL 01:02:2200:10:0401:01:4200:09:57
617115CHARLIE BROWN61MBIRMINGHAM AL 01:02:2300:10:0401:01:5200:09:59
6181015GRANT MUSGROVE42MVESTAVIA HILLS AL 01:02:2800:10:0501:02:0000:10:00
619438PAUL MATHEWS42MBIRMINGHAM AL 01:02:2800:10:0501:01:1600:09:53
PlaceBibNAMEAgeSexCITY/STATETeamNameGunTimeGunPaceTagTimeTagPace
620822ROBYN FLEMING30FALABASTER AL 01:02:3200:10:0601:01:1700:09:53
621889NOAH CRAWFORD13MTRUSSVILLE ALRUNNINGLANE COED01:02:4300:10:0701:02:3600:10:06
622411KOREN LEE33FBIRMINGHAM ALRUNNINGLANE COED01:02:4500:10:0801:02:3300:10:06
62338JULIA AHO38FBESSEMER AL 01:02:4600:10:0801:01:4900:09:59
624477ABIGAIL MISSILDINE23FDECATUR AL 01:02:5200:10:0901:02:3100:10:05
625210JANE EMMERTH45FBIRMINGHAM AL 01:02:5800:10:1001:02:2100:10:04
626789HANNAH WOOD21FMORRIS AL 01:02:5900:10:1001:02:3100:10:05
62768LAINE BARNES44FBIRMINGHAM AL 01:02:5900:10:1001:02:3100:10:05
62850SUSAN ANDREAE35FBIRMINGHAM AL 01:03:0100:10:1001:02:0000:10:00
62989STACIE BOACKLE39FHOOVER AL 01:03:0300:10:1101:02:4200:10:07
630915JOY HANSON40FTRUSSVILLE AL 01:03:1000:10:1201:02:3000:10:05
631503GENA MUELLER40FBESSEMER AL 01:03:1200:10:1201:02:0600:10:01
632304MEGHAN HENLEY36FSYLACAUGA AL 01:03:1400:10:1201:02:2300:10:04
633750BRANDY WAYMAN33FAUBURN AL 01:03:1400:10:1201:02:2300:10:04
634991DODIE DRISCOLL45FALABASTER AL 01:03:1500:10:1301:02:0200:10:01
635992PATRICK DRISCOLL31MALABASTER AL 01:03:1500:10:1301:02:0200:10:01
636726KELLY VANDIVER47FBIRMINGHAM AL 01:03:1900:10:1301:02:1400:10:03
637660ROWAN SMITH64MBIRMINGHAM AL 01:03:2900:10:1501:02:5500:10:09
638301TED HEGENBARTH75MGADSDEN AL 01:03:4000:10:1701:03:2200:10:14
639207IRELI ECHEVERRIA32FBIRMINGHAM AL 01:03:4000:10:1701:03:1300:10:12
640568JILL PITTS55FBIRMINGHAM AL 01:03:4100:10:1701:02:3500:10:06
641576PETE PRESTON60MMONTGOMERY AL 01:03:4600:10:1801:02:5900:10:10
6421026ZOE PENKO19FBIRMINGHAM AL 01:03:4700:10:1801:02:4300:10:07
643609VAN ROGERS21MBIRMINGHAM AL 01:03:4800:10:1801:02:4400:10:07
644751JEFF WAYMAN64MEAST TEMPLETON MA 01:03:5000:10:1801:02:5900:10:10
645752KEN WAYMAN33MAUBURN AL 01:03:5300:10:1901:03:0100:10:10
646748JAKE WATSON25MADGER AL 01:03:5900:10:2001:03:1400:10:12
647222JESSICA FLEMING34FVESTAVIA HILLS AL 01:04:0000:10:2001:02:4300:10:07
648828JEFFREY HERLE56MBIRMINGHAM AL 01:04:0100:10:2001:03:0800:10:11
649859CHRISTY SHARP46FBIRMINGHAM AL 01:04:0100:10:2001:03:0900:10:11
650110MARLENE BROWN51FTRUSSVILLE AL 01:04:0200:10:2001:03:3800:10:16
PlaceBibNAMEAgeSexCITY/STATETeamNameGunTimeGunPaceTagTimeTagPace
651519RICKY NICKOLES54MNORTHPORT AL 01:04:0400:10:2001:03:3000:10:15
652388MARLA KORNEGAY28FBIRMINGHAM AL 01:04:0400:10:2001:03:1400:10:12
653515KATHERINE NEIGEL52FATHABASCA CA 01:04:0600:10:2101:03:4400:10:17
654791KATHLEEN WOODRUFF30FVESTAVIA HILLS AL 01:04:0700:10:2101:03:2600:10:14
655712CHRIS TOTH61MPELHAM AL 01:04:0800:10:2101:03:5300:10:19
656696NEIMA TAVAKOLI37MVESTAVIA AL 01:04:0900:10:2101:03:0600:10:11
657905RYAN FORDHAM30MHUNTSVILLE AL 01:04:1000:10:2101:03:1300:10:12
658652CECELIA SIMS49FALABASTER AL 01:04:1000:10:2101:03:2600:10:14
6591031CLOTY EL-ZEIN52FBIRMINGHAM AL 01:04:1100:10:2101:03:5200:10:19
6601030LINDA REIMANN56FBIRMINGHAM AL 01:04:1100:10:2201:03:5200:10:18
661632STEPHANIE SCHILLING33FGARDENDALE AL 01:04:1200:10:2201:03:4000:10:16
66278JEAN-PHILIPPE BERTHOLD37MHOOVER AL 01:04:1300:10:2201:03:4600:10:18
663365ERIC JUROTICH50MBIRMINGHAM AL 01:04:1500:10:2201:03:4500:10:17
664779JENNY WILLIAMSON32FBIRMINGHAM AL 01:04:1600:10:2201:04:0100:10:20
665569STEVE PITTS60MBIRMINGHAM AL 01:04:2300:10:2401:03:1600:10:13
6661033MATTHEW MCKENZIE33MHELENA AL 01:04:2500:10:2401:03:5100:10:18
667260JEFFREY GLEASON44MBIRMINGHAM AL 01:04:2800:10:2401:03:2600:10:14
668322NANCY HOLLAWAY61FBIRMINGHAM AL 01:04:3000:10:2501:04:0000:10:20
669218DOROTHY EWING36FCALERA AL 01:04:3200:10:2501:03:5800:10:19
670454VICKIE MCCARTHY49FCHELSEA AL 01:04:3400:10:2501:03:4700:10:18
671190ADAM DESCHAMPS46MMOODY AL 01:04:3400:10:2501:03:4500:10:17
672525CLAIRE NORTON50FHOMEWOOD AL 01:04:3500:10:2501:04:2200:10:23
673399RACHAEL LANCASTER32FBIRMINGHAM AL 01:04:4100:10:2601:04:1300:10:22
674475AMBER MILLS36FONEONTA AL 01:04:4100:10:2601:04:1200:10:22
6751019AMY GARBER30FVESTAVIA AL 01:04:4400:10:2701:04:2900:10:24
67682KATIE BILLINGS25FBIRMINGHAM AL 01:04:4600:10:2701:04:2300:10:24
677474ANDREW MILLER44MBIRMINGHAM AL 01:04:5000:10:2801:04:1500:10:22
678707LAURIE TINDOL27FBIRMINGHAM AL 01:04:5100:10:2801:04:2800:10:24
679738ELEANOR WALKER25FBIRMINGHAM AL 01:04:5200:10:2801:04:2800:10:24
680296MEGAN HATHCOCK33FTRUSSVILLE AL 01:04:5300:10:2801:04:1600:10:22
6811057DOUG ALLEN59MBIRMINGHAM AL 01:04:5400:10:2901:04:1500:10:22
PlaceBibNAMEAgeSexCITY/STATETeamNameGunTimeGunPaceTagTimeTagPace
682387BRUCE KOLLING44MBIRMINGHAM AL 01:04:5600:10:2901:03:4900:10:18
6831028LEIGH BELCHER45FVESTAVIA HILLS AL 01:04:5700:10:2901:04:1900:10:23
684280GUSSIE HALL29FMOBILE AL 01:04:5800:10:2901:03:4600:10:18
685674ALAN STAMM67MBIRMINGHAM AL 01:04:5900:10:2901:04:3700:10:26
686865DANIEL VAN HAUEN34MMOUNTAIN BROOK AL 01:05:1100:10:3101:04:2900:10:24
687703KAREN THRELKELD51FBIRMINGHAM AL 01:05:2600:10:3401:05:0300:10:30
688516SUSAN NELMS53FHELENA AL 01:05:2700:10:3401:04:2900:10:24
689541KERI PARKER51FHOOVER AL 01:05:2700:10:3401:04:2800:10:24
690198APRIL DOWLING36FVESTAVIA AL 01:05:3100:10:3401:05:1800:10:32
691783LAURIE WILSON56FHUNTSVILLE AL 01:05:3400:10:3501:04:4400:10:27
692347MELANIE JACKSON62FBIRMINGHAM AL 01:05:3600:10:3501:04:3900:10:26
693757JEANNE WELSH65FSTERRETT AL 01:05:3900:10:3601:04:4300:10:27
694811JESSICA BURNETT34FBIRMINGHAM AL 01:05:4200:10:3601:04:4200:10:26
695914CHAD HANSON43MTRUSSVILLE AL 01:05:4800:10:3701:05:0800:10:31
696206TIM EASTERLING43MPINSON AL 01:05:5800:10:3901:05:0400:10:30
697174SUE CROWE66FBIRMINGHAM AL 01:06:0000:10:3901:05:3700:10:35
6981016HOLLY JONES36FHOMEWOOD AL 01:06:0200:10:3901:05:1600:10:32
69990TOMMY BOGER41MGARDENDALE AL 01:06:0600:10:4001:05:0200:10:30
700360NISA JONES40FBIRMINGHAM AL 01:06:0600:10:4001:05:4300:10:36
701956JENNIFER POIRIER49FHOMEWOOD AL 01:06:0800:10:4001:05:4200:10:36
702962BUDDY SMITH57MHOMEWOOD AL 01:06:0900:10:4001:05:4200:10:36
703904KELLY FORDHAM27FHUNTSVILLE AL 01:06:1300:10:4101:05:1400:10:32
704906JANIE FORDHAM63FBIRMINGHAM AL 01:06:1400:10:4101:05:1400:10:32
705851GREGORY PENCE68MBIRMINGHAM AL 01:06:1500:10:4101:05:0200:10:30
706147CAROL COLEY43FBIRMINGHAM AL 01:06:1500:10:4201:05:4100:10:36
707359CAROLINE JONES35FBIRMINGHAM AL 01:06:1500:10:4201:05:2500:10:33
7081014AMY WRIGHT32FHOOVER AL 01:06:1600:10:4201:05:1600:10:32
709778JEAN WILLIAMS64FALABASTER AL 01:06:1900:10:4201:06:0700:10:40
710954MELINDA PARKS51FTRUSSVILLE ALRESOLUTE RUNNING COED01:06:1900:10:4201:05:3000:10:34
711274JENNIFER GREMMELS34FTRUSSVILLE AL 01:06:1900:10:4201:05:4100:10:36
712491BRENTON MORRIS45MHOOVER AL 01:06:2100:10:4201:05:2100:10:33
PlaceBibNAMEAgeSexCITY/STATETeamNameGunTimeGunPaceTagTimeTagPace
713114AUDREY BROWN41FBIRMINGHAM ALRESOLUTE RUNNING COED01:06:2200:10:4301:05:2600:10:34
714113STEPHANIE BROWN45FTRUSSVILLE AL 01:06:2400:10:4301:05:5500:10:38
7151018STEPHANIE LACHINA44FBIRMINGHAM AL 01:06:2600:10:4301:05:3400:10:35
716212KELLY ESTEP33FMC CALLA AL 01:06:2900:10:4401:05:5800:10:39
71799ROBERT BOYLAN32MBIRMINGHAM AL 01:06:3000:10:4401:06:0300:10:40
718720LAWRENCE TYSON63MBIRMINGHAM ALCOUNSELORS ON THE RUN01:06:3300:10:4401:05:5700:10:39
71981MELISSA BIBB59FPELHAM AL 01:06:3500:10:4501:05:3900:10:36
720542JEFF PARMER52MMOUNTAIN BROOK AL 01:06:3700:10:4501:05:3700:10:35
721894STEPHANIE DEVINE31FTRUSSVILLE AL 01:06:3800:10:4501:06:3800:10:45
722965GLENN STEWART42MBIRMINGHAM AL 01:06:4100:10:4601:05:4800:10:37
723579BRITTNEY PURDY23FTRUSSVILLET AL 01:06:4200:10:4601:05:5700:10:39
724770SARA BETH WILCOX34FBIRMINGHAM AL 01:06:4900:10:4701:06:1100:10:41
725535BRAM O'STEEN68MMUSCLE SHOALS AL 01:06:5000:10:4701:06:1100:10:41
726109EMILY BROWN37FFLORENCE AL 01:06:5000:10:4701:06:1100:10:41
727256AMY GIBSON32FBIRMINGHAM AL 01:06:5200:10:4801:06:1800:10:42
728415TAYLOR LEWIS31FHOOVER AL 01:07:0400:10:4901:06:1200:10:41
729183ABBY DAY28FBIRMINGHAM AL 01:07:0800:10:5001:06:5100:10:47
730721BETH UHLMAN43FBIRMINGHAM AL 01:07:1100:10:5101:06:1200:10:41
731202TIFFANY DUNLAP46FBIRMINGHAM AL 01:07:1100:10:5101:06:1100:10:41
732735FRED WALBURN73MLIVINGSTON AL 01:07:1600:10:5101:06:4700:10:47
733927IRA JONES59FTRUSSVILLE AL 01:07:1800:10:5201:06:2900:10:44
734588TORI REBMAN42FCHELSEA AL 01:07:2200:10:5201:06:3500:10:45
7351081SANDRA GILLEY55FBIRMINGHAM AL 01:07:2800:10:5301:06:2500:10:43
7361004JAN EWERS39MBIRMINGHAM AL 01:07:3000:10:5401:07:2200:10:52
737685JOHN STREIFF46MBIRMINGHAM AL 01:07:3400:10:5401:07:0400:10:49
7381038PARKER DOBBINS45MBIRMINGHAM AL 01:07:3400:10:5401:06:2800:10:44
739594DEANNA RENN46FPRATTVILLE AL 01:07:3600:10:5501:06:3900:10:45
740223MITCH FLOYD46MALBERTVILLE AL 01:07:4000:10:5501:06:2700:10:44
741495MATT MORRIS39MHELENA AL 01:07:4100:10:5501:07:3000:10:54
742163SHERYL CORY54FCLEARWATER FL 01:07:4200:10:5601:07:1000:10:50
743162LYNDSIE CORY23FCLEARWATER FL 01:07:4200:10:5601:07:1000:10:50
PlaceBibNAMEAgeSexCITY/STATETeamNameGunTimeGunPaceTagTimeTagPace
7441094BETSY HOPSON36FLINCOLN AL 01:07:4400:10:5601:07:1900:10:52
745996TYNISIA ROWELL44FFAIRFIELD AL 01:07:4600:10:5601:06:5700:10:48
746293LISA HARVEY53FSPRINGVILLE AL 01:07:4700:10:5601:07:2000:10:52
747442CHERYL MATTRELLA56FBIRMINGHAM AL 01:07:4700:10:5601:07:2000:10:52
748874JENNIFER BEALL47FBIRMINGHAM AL 01:07:5100:10:5701:07:0000:10:49
749645TARA SHEA42FBIRMINGHAM AL 01:07:5800:10:5801:07:3100:10:54
750710ANALISE TOONE12FBIRMINGHAM AL 01:08:0500:10:5901:07:3600:10:55
751291VICKIE HARRIS58FBIRMINGHAM AL 01:08:0600:10:5901:07:2100:10:52
752153ANNA COLVIN39FBIRMINGHAM AL 01:08:0600:10:5901:07:3900:10:55
753538RANDALL PALMORE60MJASPER AL 01:08:1400:11:0101:08:0100:10:59
754353PAUL JERNIGAN39MHOOVER AL 01:08:1700:11:0101:07:2000:10:52
7551046PHIL MIN61MMT OLIVE AL 01:08:1700:11:0101:07:3200:10:54
756352KYLIE JERNIGAN37FHOOVER AL 01:08:1700:11:0101:07:1900:10:52
757547ASHLEY PATTERSON39FBIRMINGHAM AL 01:08:1900:11:0101:07:2100:10:52
758628STEPHEN SAVINCKI37MHELENA AL 01:08:1900:11:0201:07:1800:10:52
759790MARY WOODRUFF27FBIRMINGHAM AL 01:08:2200:11:0201:07:4000:10:55
76088ASHLEY BLACKWELL30FBIRMINGHAM AL 01:08:2300:11:0201:08:0700:11:00
761290REBECCA HARGRAVES34FBIRMINGHAM AL 01:08:2300:11:0201:07:3900:10:55
762711KRISTINE TOONE40FBIRMINGHAM AL 01:08:2700:11:0301:07:5600:10:58
763410GAIL LEE64FBIRMINGHAM AL 01:08:3900:11:0501:07:3400:10:54
764651TRICIA SIMPSON46FBIRMINGHAM AL 01:08:4400:11:0601:07:5200:10:57
765848LISA OAKMAN43FBIRMINGHAM AL 01:08:4400:11:0601:07:5100:10:57
766448ELLA MCATEE19FBIRMINGHAM AL 01:08:4800:11:0601:07:3700:10:55
767773SYDNEY WILKERSON19FAUBURN AL 01:08:4800:11:0601:07:3700:10:55
768161ALYSSA CORY26FTALLAHASSEE FL 01:08:5300:11:0701:08:2200:11:02
769530PATSY OLIVER57FVESTAVIA AL 01:08:5300:11:0701:07:3700:10:55
770127TORI CANTAVESPRE44FSTERRETT AL 01:08:5300:11:0701:07:4000:10:55
771284MICHELLE HANKS26FTRUSSVILLE AL 01:08:5800:11:0801:08:1100:11:00
772578LEIGH ANN PRITCHETT30FSPRINGVILLE AL 01:08:5900:11:0801:08:1200:11:00
773719IRENE TYNER62FMONTGOMERY AL 01:08:5900:11:0801:08:1000:11:00
774793WAYNE WRIGHT52MWEST BLOCTON AL 01:08:5900:11:0801:08:3900:11:05
PlaceBibNAMEAgeSexCITY/STATETeamNameGunTimeGunPaceTagTimeTagPace
775351MIKE JENKINS55MBIRMINGHAM AL 01:08:5900:11:0801:08:0100:10:59
776505EMILY MULLINS27FGADSDEN AL 01:09:1000:11:1001:08:1900:11:02
777129JAMIE CARNES34FMORRIS AL 01:09:1800:11:1101:08:2300:11:02
77845ANNA ALTZ-STAMM35FBIRMINGHAM AL 01:09:2700:11:1201:09:0500:11:09
779487JOHN MOORE44MGADSDEN AL 01:09:2800:11:1301:09:0100:11:08
780753SARAH WEAVER38FHOOVER AL 01:09:2800:11:1301:08:4000:11:05
781947HANNAH MITCHELL23FGARDENDALE AL 01:09:3500:11:1401:08:4900:11:06
782946ROB MITCHELL26MBIRMINGHAM AL 01:09:3500:11:1401:08:4900:11:06
783125VALERIE CAMPBELL57FBIRMINGHAM AL 01:09:5000:11:1601:09:2500:11:12
784373KAELA KELLY22FPINSON AL 01:09:5700:11:1701:09:1700:11:11
7851002HARRIS ED62MTRUSSVILLE AL 01:09:5900:11:1801:09:1000:11:10
7861024BETH STOKES40FHELENA AL 01:10:0000:11:1801:09:0500:11:09
787419KRISTIN LONG43FHELENA AL 01:10:0000:11:1801:09:0600:11:09
788449ERIN MCATEE50FBIRMINGHAM AL 01:10:0500:11:1901:08:5700:11:08
789450STUART MCATEE50MBIRMINGHAM AL 01:10:0500:11:1901:08:5700:11:08
790771LAUREN WILDER31FMONTGOMERY AL 01:10:1800:11:2101:09:3600:11:14
79157ALLENE ARNOLD36FBIRMINGHAM AL 01:10:3000:11:2301:10:1700:11:21
792973MARGARET VICE19FBIRMINGHAM AL 01:10:3200:11:2301:10:1800:11:21
793974MICHAEL VICE15MBIRMINGHAM AL 01:10:3200:11:2301:10:1800:11:21
7941072JENNIFER COFER39FBIRMINGHAM AL 01:10:4600:11:2501:10:4600:11:25
795830JESSICA JACKSON34FALABASTER AL 01:10:4900:11:2601:09:4500:11:15
796377BRYAN KING46MHOMEWOOD AL 01:10:4900:11:2601:09:4000:11:15
7971068ALAN PINION46MTRUSSVILLE AL 01:10:5800:11:2701:10:1400:11:20
798643MITZI SHAFFIELD44FVESTAVIA AL 01:11:0300:11:2801:09:5800:11:17
799739KIERA WALKER32FBIRMINGHAM ALCOUNSELORS ON THE RUN01:11:0400:11:2801:10:0300:11:18
800529SARAH O'KELLEY38FTRUSSVILLE AL 01:11:1400:11:3001:10:3100:11:23
801901LAURA FALONE37FBIRMINGHAM AL 01:11:1500:11:3001:10:0900:11:19
802405LINDA LAZAR68FBIRMINGHAM AL 01:11:2200:11:3101:10:2400:11:22
8031003WILLI EWERS75MBIRMINGHAM AL 01:11:2800:11:3201:11:1900:11:31
804967KELLY TAYLOR38FBIRMINGHAM AL 01:11:3300:11:3301:10:5700:11:27
805417JACQUELINE LONG25FBIRMINGHAM AL 01:11:3900:11:3401:10:4800:11:26
PlaceBibNAMEAgeSexCITY/STATETeamNameGunTimeGunPaceTagTimeTagPace
806464RYAN MCLELLAN46MPELHAM AL 01:11:4200:11:3401:10:4200:11:25
807704ALICE THROWER59FOXFORD AL 01:11:5100:11:3601:10:5500:11:27
808575PATTI PRESTON63FMONTGOMERY AL 01:12:0100:11:3701:11:1000:11:29
809286SABRINA HANSEN-TURNBULL48FBIRMINGHAM AL 01:12:0900:11:3901:11:4300:11:34
810716KATHARINE TURNBULL17FBIRMINGHAM AL 01:12:1000:11:3901:11:5600:11:37
811876NANETTE BICKEL43FBIRMINGHAM AL 01:12:1200:11:3901:11:0300:11:28
812972JUDY VATELLA55FBIRMINGHAM AL 01:12:1200:11:3901:11:0300:11:28
813958CHRISTIE RIERSON44FBIRMINGHAM AL 01:12:1200:11:3901:11:0400:11:28
814486ROSEMARY MOORE51FBIRMINGHAM AL 01:12:1300:11:3901:11:0400:11:28
815346JAMES JACKSON69MVESTAVIA AL 01:12:1600:11:4001:10:5300:11:26
816980MARY WORTHINGTON52FBIRMINGHAM AL 01:12:2500:11:4101:11:3300:11:33
817150LAURA COLLINS29FBIRMINGHAM ALCABANISS JOHNSTON01:12:3000:11:4201:11:5700:11:37
818443DIANE MAUGHAN42FPELHAM ALCABANISS JOHNSTON01:12:3000:11:4201:11:5600:11:37
819723CLARK UNDERBAKKE46MBIRMINGHAM AL 01:12:3400:11:4301:11:4500:11:35
820362GORMAN JONES57MBIRMINGHAM AL 01:12:3400:11:4301:11:4400:11:35
821695DAVID TAVAKOLI43MATLANTA GA 01:12:3700:11:4301:11:3500:11:33
822922BRANDI HYATT34FBIRMINGHAM AL 01:12:4000:11:4401:11:5600:11:37
823455CAL MCCLESKEY32MBIRMINGHAM AL 01:12:4200:11:4401:12:2300:11:41
824409CANDICE LEE39FBIRMINGHAM AL 01:12:4500:11:4501:11:3100:11:33
825227MISTY FONTENOT40FBIRMINGHAM ALRESOLUTE RUNNING COED01:12:5100:11:4501:11:5100:11:36
826656SHANOSHA SMITH41FHOOVER AL 01:12:5900:11:4701:11:3500:11:33
827358EMILY JOHNSON27FBIRMINGHAM AL 01:13:0000:11:4701:12:1300:11:39
8281090RUTH WANG30FHOOVER AL 01:13:0700:11:4801:11:5600:11:37
8291091CHRIS WANG35MHOOVER AL 01:13:0900:11:4801:11:5700:11:37
8301077VERN SWINDELL44MGARDENDALE AL 01:13:1000:11:4801:12:4900:11:45
831209STACEY ELROD30FMOODY AL 01:13:2000:11:5001:12:0500:11:38
832208ANDREA ECKELMAN33FMONTEVALLO AL 01:13:2900:11:5201:13:0400:11:47
833287BROOKIE HARBISON45FALABASTER AL 01:13:2900:11:5201:13:0400:11:48
834295WENDY HASSINGER47FBIRMINGHAM AL 01:13:3100:11:5201:12:3100:11:42
8351097JENNIFER KELLEY42FHELENA AL 01:13:3200:11:5201:12:3700:11:43
8361032BLAKE FITZSIMMONS23MADGER AL 01:13:3200:11:5201:12:4700:11:45
PlaceBibNAMEAgeSexCITY/STATETeamNameGunTimeGunPaceTagTimeTagPace
837960CINDI ROUTMAN59FBIRMINGHAM AL 01:13:5500:11:5601:13:0500:11:48
838136TERESA CHANDLER66FBIRMINGHAM AL 01:14:0000:11:5601:13:0000:11:47
839664TINA SMITH44FBIRMINGHAM AL 01:14:0700:11:5801:13:4900:11:55
840961MICHAEL ROUTMAN62MBIRMINGHAM AL 01:14:0900:11:5801:13:1900:11:50
841975SUSAN WALKER40FBIRMINGHAM AL 01:14:0900:11:5801:14:0900:11:58
842943MAITE MILLER38FWILSONVILLE AL 01:14:1300:11:5901:13:1800:11:50
843955ADELE PITTS51FHELENA AL 01:14:1600:11:5901:13:4300:11:54
844368JANET KAVINOKY43FHOMEWOOD AL 01:14:2400:12:0001:13:0600:11:48
845561SCOUT PHILLIPS16FBIRMINGHAM AL 01:14:3400:12:0201:13:4400:11:54
846485MEREDITH MOONEY34FWILSONVILLE AL 01:14:5900:12:0601:14:2200:12:00
84785MARJORIE BISHOP53FHUNTSVILLE AL 01:15:1400:12:0901:14:3800:12:03
848320HEATHER HOLDEN34FHARVEST AL 01:15:2600:12:1001:15:0900:12:08
849742MATT WARNAT31MBIRMINGHAM AL 01:15:2700:12:1101:14:4700:12:04
850802CARY ZEANAH53FVESTAVIA AL 01:15:4000:12:1301:15:1400:12:08
851343LIZ HYDE55FBIRMINGHAM AL 01:15:4600:12:1401:15:0400:12:07
852344RUSSELL HYDE55MBIRMINGHAM AL 01:15:4600:12:1401:15:0500:12:07
853122JIM BYRD61MBIRMINGHAM AL 01:16:2100:12:1901:15:2900:12:11
8541039LES BAILEY66MBIRMINGHAM AL 01:16:3100:12:2101:15:2900:12:11
855832SARA KAYLOR34FTUSCALOOSA AL 01:16:3200:12:2101:15:5300:12:15
856562TAN PHILLIPS49FBIRMINGHAM AL 01:17:2700:12:3001:16:3600:12:22
857216CAROLINE ETHERIEDGE40FWARRIOR AL 01:17:3500:12:3101:16:2300:12:20
858668JUSTIN SMITH34MBIRMINGHAM AL 01:17:4100:12:3201:16:3700:12:22
859241MELISSA GADDIS40FMADISON AL 01:17:5900:12:3501:16:5400:12:25
860694SYDNEY TALLEY23FLEEDS AL 01:18:0900:12:3701:17:5100:12:34
861693SHELLIE TALLEY45FLEEDS AL 01:18:1000:12:3701:17:5100:12:34
862145NIKKI COHRON25FBIRMINGHAM AL 01:18:1900:12:3801:17:1500:12:28
863412ROBERT LENOIR65MBIRMINGHAM AL 01:18:2900:12:4001:17:5300:12:34
864907JIMMY FORDHAM54MBIRMINGHAM AL 01:18:3700:12:4101:17:3400:12:31
865598BAILIEGH RICHARDS6FKIMBERLY AL 01:18:4300:12:4201:17:4600:12:33
866597AMY RICHARDS29FKIMBERLY ALRESOLUTE RUNNING COED01:18:5000:12:4301:17:5300:12:34
867677MAGGIE STANA13FBIRMINGHAM AL 01:18:5100:12:4301:17:5000:12:34
PlaceBibNAMEAgeSexCITY/STATETeamNameGunTimeGunPaceTagTimeTagPace
868678MEG STANA45FBIRMINGHAM AL 01:18:5100:12:4301:17:4800:12:33
869682JENNIFER STIMSON47FBIRMINGHAM AL 01:19:1300:12:4701:18:0300:12:36
870441LIZA MATHEWS45FODENVILLE AL 01:19:3100:12:5001:18:4300:12:42
871686MELONIE STURM47FPELHAM AL 01:19:3800:12:5101:19:1000:12:47
872363LUCY JORDAN41FHOOVER AL 01:19:4500:12:5201:19:1900:12:48
8731009KAYLEY KRUEGER28FBIRMINGHAM AL 01:19:5100:12:5301:19:3800:12:51
874534STEPHANIE OSBORNE33FGARDENDALE AL 01:20:0200:12:5501:19:4000:12:51
875499NICOLE MORTON33FGARDENDALE AL 01:20:0200:12:5501:19:4000:12:51
8761098ANNA KRUEGER25FBIRMINGHAM AL 01:20:0800:12:5601:19:5500:12:54
877390BETSY KRUEGER54FBIRMINGHAM AL 01:20:1400:12:5701:19:5600:12:54
878171TABITHA CROCKER26FDORA AL 01:20:3100:13:0001:19:2300:12:49
8791062JENNIE CRAFT55FBIRMINGHAM AL 01:20:3100:13:0001:19:3200:12:50
880909KELLY GARNER51MBIRMINGHAM ALRESOLUTE RUNNING COED01:20:3200:13:0001:19:3500:12:51
881869DARRIN ABERNATHY49MHOOVER ALRESOLUTE RUNNING COED01:20:3300:13:0001:19:3200:12:50
882258DARRELL GIBSON45MHOMEWOOD AL 01:20:3300:13:0001:19:5800:12:54
88394JEAN MARIE BOTTSFORD53FBIRMINGHAM AL 01:20:3500:13:0001:20:0000:12:55
884307LINDSEY HENSON23FBIRMINGHAM AL 01:20:5300:13:0301:20:0300:12:55
885544MICHELE PARR60FBIRMINGHAM AL 01:20:5500:13:0401:19:5500:12:54
886840ANNA MANASCO36FBIRMINGHAM AL 01:20:5800:13:0401:20:1400:12:57
887111JESSICA BROWN39FBATON ROUGE LA 01:20:5800:13:0401:20:1400:12:57
888189MO DESAI47FBIRMINGHAM AL 01:21:1600:13:0701:20:3100:13:00
889944JULIE MILLER44FBIRMINGHAM AL 01:21:2000:13:0701:20:4000:13:01
890510AMY MURPHY44FPELHAM AL 01:21:2900:13:0901:20:1700:12:57
891463KATHY MCKEE33FSPRINGVILLE AL 01:21:5600:13:1301:21:2800:13:09
892659KATLYN SMITH25FWETUMPKA AL 01:22:2000:13:1701:21:2200:13:08
893234MICHELLE FREEMAN32FBIRMINGHAM AL 01:22:2100:13:1701:21:2200:13:08
894254AMANDA GEORGE39FBIRMINGHAM AL 01:23:0300:13:2401:22:2900:13:19
895736CYNTHIA WALDROP54FBIRMINGHAM AL 01:23:0400:13:2401:22:2000:13:17
896676BRIAN STANA46FBIRMINGHAM AL 01:23:3700:13:3001:22:3600:13:20
897776VANESSA WILLIAMS39FCLANTON AL 01:24:0500:13:3401:23:0100:13:24
898369CHRISTY KEARLEY42FCOLUMBIANA AL 01:24:4000:13:4001:24:2800:13:38
PlaceBibNAMEAgeSexCITY/STATETeamNameGunTimeGunPaceTagTimeTagPace
8991043TOM SMOTHERS65MCHELSEA AL 01:24:5400:13:4201:24:2300:13:37
900457HORACE MCCOY JR38MBIRMINGHAM AL 01:24:5900:13:4301:24:5900:13:43
901936SAM LOCHAMY62MPELHAM AL 01:25:2800:13:4701:24:2300:13:37
902338DONNA HUGGINS65FBIRMINGHAM AL 01:25:2800:13:4801:24:2300:13:37
903809GIA BIVENS39FBIRMINGHAM AL 01:25:3800:13:4901:25:1900:13:46
904850FRANCES PATTON65FBIRMINGHAM AL 01:25:3900:13:4901:25:2000:13:46
905500PAMELA MOSER60FBIRMINGHAM AL 01:25:4800:13:5101:24:5400:13:42
906631LESLIE SCARBOROUGH39FBIRMINGHAM AL 01:25:4800:13:5101:24:5300:13:42
907610LYNN ROPER59FBIRMINGHAM AL 01:25:4800:13:5101:24:5400:13:42
908798KIM YARBORO50FBIRMINGHAM AL 01:26:0800:13:5401:25:4000:13:49
909846SARA NABORS39FCHELSEA AL 01:26:1500:13:5501:25:2100:13:46
910157JANE COOPER63FBIRMINGHAM AL 01:26:2800:13:5701:25:1600:13:46
911763GREG WEYANDT64MBIRMINGHAM AL 01:26:2800:13:5701:25:1700:13:46
912469LARRY MEANS69MATTALLA AL 01:26:4600:14:0001:26:2100:13:56
91383WILLIAM BISHOP23MHUNTSVILLE AL 01:27:1800:14:0501:26:2900:13:57
914635ADRIENNE SCOTT30FBIRMINGHAM AL 01:27:2700:14:0701:26:3700:13:59
915492DEWAYNE MORRIS85MBIRMINGHAM AL 01:27:3900:14:0901:26:4600:14:00
916130PAMELA CARTER66FBIRMINGHAM AL 01:28:0900:14:1301:27:3400:14:08
917123RACHEL CAIN36FJASPER AL 01:28:1800:14:1501:27:2100:14:06
91872ANITRA BATIE42FJASPER AL 01:28:3300:14:1701:27:3600:14:08
919998CAROL MILLS46FHOMEWOOD AL 01:28:4600:14:1901:27:3200:14:07
920805KATHRYN APPLETON49FBIRMINGHAM AL 01:28:4600:14:1901:27:3200:14:07
921689SUE ELLEN SUMMERS57FMOUNTAIN BROOK AL 01:29:1100:14:2301:28:2500:14:16
922589AMIEE REEVES48FBIRMINGHAM AL 01:29:2200:14:2501:28:2600:14:16
923801SALLIE YOUNGBLOOD46FBIRMINGHAM AL 01:29:2200:14:2501:28:2500:14:16
924134LAURA CHAATH29FBIRMINGHAM AL 01:29:2500:14:2601:28:4900:14:20
925143JENNIFER CLAYTON34FCHELSEA AL 01:29:3000:14:2701:28:2400:14:16
926780PAMELA WILSON35FBIRMINGHAM AL 01:29:5800:14:3101:28:4400:14:19
927910COURTNEY GARZA33FPELHAM AL 01:30:0200:14:3201:28:4900:14:20
928386CHERYL KNIGHT33FBIRMINGHAM AL 01:30:0600:14:3201:28:5400:14:21
929357CHRISTY JOHNSON46FBIRMINGHAM AL 01:30:2000:14:3501:30:0300:14:32
PlaceBibNAMEAgeSexCITY/STATETeamNameGunTimeGunPaceTagTimeTagPace
930472BILL MILLER41MCHELSEA AL 01:30:2900:14:3601:29:2400:14:26
93184CYNTHIA BISHOP21FHUNTSVILLE AL 01:30:3400:14:3701:29:4600:14:29
9321013MEREDITH VINCENT40FCLANTON AL 01:30:4000:14:3801:29:3700:14:28
933675BEN STANA16MBIRMINGHAM AL 01:32:2400:14:5501:31:1600:14:44
934461ROBERT MCELROY46MBIRMINGHAM AL 01:32:2500:14:5501:31:2300:14:45
935746MARY ANN WATKINS51FGADSDEN AL 01:32:4000:14:5701:31:3800:14:47
936117LAURA BUCKANAN45FBIRMINGHAM AL 01:32:4000:14:5701:31:3900:14:47
937270NOEL GRAHAM59FBIRMINGHAM AL 01:33:0300:15:0101:31:5300:14:50
938361SANDRA JONES63FBIRMINGHAM AL 01:33:0300:15:0101:31:5300:14:50
9391059LISA SIMS55FHELENA AL 01:33:1000:15:0201:32:0600:14:52
940916AMANDA HARDEN38FPELHAM AL 01:34:0100:15:1001:33:0500:15:01
941355NATALIAN JOHNSON28FCALERA AL 01:35:3300:15:2501:34:3000:15:15
942385KANEESHA KNIGHT25FSYLACAUGA AL 01:35:4400:15:2701:34:3500:15:16
943447CAMPBELL MCATEE17FBIRMINGHAM AL 01:35:5300:15:2801:34:4200:15:17
944321CARL GIBSON HOLLADAY60MPELL CITY AL 01:36:0800:15:3101:35:2600:15:24
945269GREG GRAHAM58MHOMEWOOD AL 01:36:0900:15:3101:35:2900:15:24
946348CECILY JACKSON44FMONTGOMERY AL 01:36:1200:15:3101:35:1500:15:22
947381JULIA KIRKSEY45FSYLACAUGA AL 01:36:1700:15:3201:35:0900:15:21
948573RENEE POWELL54FCLANTON AL 01:36:2100:15:3301:35:1300:15:22
949603KATHY ROBBINS45FMAYLENE AL 01:36:2200:15:3301:35:1200:15:22
950734KAREN WADLINGTON51FBESSEMER AL 01:37:0100:15:3901:35:5500:15:29
9511035CLINTON ALVERSON50MCANTON GA 01:37:3300:15:4401:36:1900:15:33
952868MARIETTA WICKS47FBESSEMER AL 01:39:2000:16:0201:38:1500:15:51
953137MISSY CHILDERS53FBIRMINGHAM AL 01:39:2500:16:0201:38:4000:15:55
954928MARY GRACE KAUFMANN54FBIRMINGHAM AL 01:44:1000:16:4801:43:5200:16:46
955722BILL UHRIG73MBIRMINGHAM AL 01:44:3100:16:5201:43:4300:16:44
956488BRIDGETT MOORE31FHOOVER AL 01:56:4300:18:5001:55:3000:18:38
957397LINDA LANCASTER64FBIRMINGHAM AL 01:56:4600:18:5001:55:2900:18:38

** Results are for the private use of participants and are the Intellectual Property of Set Up Events. Unauthorized use of these results is prohibited.